DAL39 KLAX-ZSPD
Flight info
| Callsign | DAL39 |
|---|---|
| Flight time | N/A |
| Altitude | 34000 |
| Route | SUMMR2 MCKEY DCT LIBBO DCT BRINY DCT BOARS DCT AMAKR DCT REDWD DCT TRYSH DCT GAPNE DCT 44N140W 47N150W 50N160W 51N170W 51N180E 50N170E DCT CUTEE DCT KALIG DCT KALNA OTR5 ADNAP Y807 LALID Y804 INUBO Y60 ISAKY Y592 ONIKU A593 LAMEN/K0930F340 A593 AKARA/K0933S1035 A593 DUMET DUM92A |
| Aircraft | A359/H-SDE2E3GHIJ3J4J5LM1ORWXY/LB1D1 |
Departure
| Time | N/A |
|---|---|
| Airport | Los Angeles International Airport (KLAX) |
Arrival
| Time | 2026-05-07 06:27 |
|---|---|
| Airport | Shanghai Pudong International Airport (ZSPD) |
| Time | Latitude | Longitude | Altitude | Speed | Heading |
|---|---|---|---|---|---|
| 2026-05-06 19:19 | 39.75369 | -125.79760 | 33993 ft | 473 kts | 295° |
| 2026-05-06 19:20 | 39.76750 | -125.83656 | 33993 ft | 473 kts | 295° |
| 2026-05-06 19:20 | 39.79496 | -125.91410 | 33993 ft | 473 kts | 295° |
| 2026-05-06 19:21 | 39.82238 | -125.99170 | 33993 ft | 473 kts | 295° |
| 2026-05-06 19:21 | 39.84968 | -126.06918 | 33993 ft | 473 kts | 295° |
| 2026-05-06 19:22 | 39.87712 | -126.14725 | 33993 ft | 473 kts | 295° |
| 2026-05-06 19:22 | 39.90422 | -126.22456 | 33993 ft | 473 kts | 295° |
| 2026-05-06 19:23 | 39.93160 | -126.30288 | 33993 ft | 473 kts | 295° |
| 2026-05-06 19:23 | 39.95871 | -126.38067 | 33993 ft | 473 kts | 295° |
| 2026-05-06 19:24 | 39.98580 | -126.45863 | 33992 ft | 473 kts | 295° |
| 2026-05-06 19:24 | 40.01170 | -126.53731 | 33992 ft | 473 kts | 292° |
| 2026-05-06 19:25 | 40.03595 | -126.61691 | 33992 ft | 473 kts | 292° |
| 2026-05-06 19:25 | 40.06005 | -126.69662 | 33993 ft | 473 kts | 291° |
| 2026-05-06 19:26 | 40.08409 | -126.77632 | 33993 ft | 473 kts | 291° |
| 2026-05-06 19:26 | 40.10822 | -126.85615 | 33993 ft | 473 kts | 291° |
| 2026-05-06 19:27 | 40.13254 | -126.93609 | 33993 ft | 473 kts | 291° |
| 2026-05-06 19:27 | 40.15658 | -127.01596 | 33993 ft | 473 kts | 291° |
| 2026-05-06 19:28 | 40.18062 | -127.09570 | 33993 ft | 473 kts | 291° |
| 2026-05-06 19:28 | 40.20457 | -127.17557 | 33993 ft | 473 kts | 291° |
| 2026-05-06 19:29 | 40.22836 | -127.25530 | 33993 ft | 473 kts | 291° |
| 2026-05-06 19:29 | 40.25227 | -127.33576 | 33993 ft | 473 kts | 291° |
| 2026-05-06 19:30 | 40.27594 | -127.41567 | 33993 ft | 473 kts | 291° |
| 2026-05-06 19:30 | 40.29969 | -127.49612 | 33993 ft | 473 kts | 291° |
| 2026-05-06 19:31 | 40.32323 | -127.57608 | 33993 ft | 473 kts | 291° |
| 2026-05-06 19:31 | 40.35857 | -127.69672 | 33993 ft | 473 kts | 290° |
| 2026-05-06 19:32 | 40.38205 | -127.77738 | 33993 ft | 473 kts | 290° |
| 2026-05-06 19:32 | 40.40533 | -127.85748 | 33993 ft | 473 kts | 291° |
| 2026-05-06 19:33 | 40.42882 | -127.93842 | 33993 ft | 473 kts | 291° |
| 2026-05-06 19:33 | 40.45208 | -128.01878 | 33993 ft | 473 kts | 291° |
| 2026-05-06 19:34 | 40.47542 | -128.09970 | 33993 ft | 473 kts | 291° |
| 2026-05-06 19:34 | 40.49852 | -128.17999 | 33993 ft | 473 kts | 291° |
| 2026-05-06 19:35 | 40.52177 | -128.26108 | 33993 ft | 473 kts | 291° |
| 2026-05-06 19:35 | 40.54479 | -128.34163 | 33993 ft | 473 kts | 291° |
| 2026-05-06 19:36 | 40.56776 | -128.42221 | 33993 ft | 473 kts | 291° |
| 2026-05-06 19:36 | 40.59082 | -128.50342 | 33993 ft | 473 kts | 291° |
| 2026-05-06 19:37 | 40.61369 | -128.58415 | 33993 ft | 473 kts | 291° |
| 2026-05-06 19:37 | 40.63665 | -128.66553 | 33993 ft | 473 kts | 290° |
| 2026-05-06 19:38 | 40.65944 | -128.74680 | 33993 ft | 473 kts | 290° |
| 2026-05-06 19:38 | 40.68208 | -128.82773 | 33993 ft | 473 kts | 290° |
| 2026-05-06 19:39 | 40.70480 | -128.90904 | 33993 ft | 473 kts | 290° |
| 2026-05-06 19:39 | 40.72736 | -128.99002 | 33993 ft | 473 kts | 290° |
| 2026-05-06 19:40 | 40.75003 | -129.07161 | 33993 ft | 473 kts | 290° |
| 2026-05-06 19:40 | 40.77251 | -129.15280 | 33993 ft | 473 kts | 290° |
| 2026-05-06 19:41 | 40.79491 | -129.23395 | 33993 ft | 473 kts | 290° |
| 2026-05-06 19:41 | 40.81739 | -129.31566 | 33993 ft | 473 kts | 290° |
| 2026-05-06 19:42 | 40.83971 | -129.39703 | 33993 ft | 473 kts | 290° |
| 2026-05-06 19:42 | 40.86207 | -129.47881 | 33993 ft | 473 kts | 290° |
| 2026-05-06 19:43 | 40.88424 | -129.56020 | 33992 ft | 473 kts | 290° |
| 2026-05-06 19:43 | 40.90650 | -129.64214 | 33992 ft | 473 kts | 290° |
| 2026-05-06 19:44 | 40.92855 | -129.72380 | 33993 ft | 473 kts | 289° |
| 2026-05-06 19:44 | 40.95054 | -129.80554 | 33993 ft | 473 kts | 289° |
| 2026-05-06 19:45 | 40.97259 | -129.88759 | 33993 ft | 473 kts | 289° |
| 2026-05-06 19:45 | 40.99447 | -129.96927 | 33993 ft | 473 kts | 289° |
| 2026-05-06 19:46 | 41.01631 | -130.05103 | 33993 ft | 473 kts | 289° |
| 2026-05-06 19:46 | 41.03830 | -130.13358 | 33993 ft | 473 kts | 289° |
| 2026-05-06 19:47 | 41.06007 | -130.21562 | 33993 ft | 473 kts | 289° |
| 2026-05-06 19:47 | 41.08172 | -130.29748 | 33993 ft | 473 kts | 289° |
| 2026-05-06 19:48 | 41.10347 | -130.37996 | 33992 ft | 473 kts | 289° |
| 2026-05-06 19:48 | 41.12530 | -130.46199 | 33993 ft | 473 kts | 289° |
| 2026-05-06 19:49 | 41.14695 | -130.54421 | 33994 ft | 473 kts | 289° |
| 2026-05-06 19:49 | 41.16829 | -130.62620 | 33994 ft | 473 kts | 289° |
| 2026-05-06 19:50 | 41.18965 | -130.70860 | 33992 ft | 473 kts | 289° |
| 2026-05-06 19:50 | 41.21441 | -130.78926 | 33992 ft | 473 kts | 295° |
| 2026-05-06 19:51 | 41.24256 | -130.86822 | 33993 ft | 473 kts | 295° |
| 2026-05-06 19:51 | 41.27070 | -130.94679 | 33993 ft | 473 kts | 295° |
| 2026-05-06 19:52 | 41.29891 | -131.02602 | 33993 ft | 473 kts | 295° |
| 2026-05-06 19:52 | 41.32684 | -131.10483 | 33993 ft | 473 kts | 295° |
| 2026-05-06 19:53 | 41.35481 | -131.18402 | 33993 ft | 473 kts | 295° |
| 2026-05-06 19:53 | 41.38259 | -131.26292 | 33993 ft | 473 kts | 295° |
| 2026-05-06 19:54 | 41.41045 | -131.34227 | 33993 ft | 473 kts | 295° |
| 2026-05-06 19:54 | 41.43827 | -131.42174 | 33993 ft | 473 kts | 295° |
| 2026-05-06 19:55 | 41.46591 | -131.50092 | 33993 ft | 473 kts | 295° |
| 2026-05-06 19:55 | 41.49363 | -131.58057 | 33993 ft | 473 kts | 295° |
| 2026-05-06 19:56 | 41.52108 | -131.65964 | 33993 ft | 473 kts | 294° |
| 2026-05-06 19:56 | 41.54856 | -131.73933 | 33993 ft | 473 kts | 294° |
| 2026-05-06 19:57 | 41.57605 | -131.81920 | 33993 ft | 473 kts | 294° |
| 2026-05-06 19:57 | 41.60341 | -131.89877 | 33993 ft | 473 kts | 295° |
| 2026-05-06 19:58 | 41.63089 | -131.97888 | 33993 ft | 473 kts | 295° |
| 2026-05-06 19:58 | 41.65815 | -132.05855 | 33993 ft | 473 kts | 295° |
| 2026-05-06 19:59 | 41.68531 | -132.13815 | 33993 ft | 473 kts | 295° |
| 2026-05-06 19:59 | 41.71258 | -132.21832 | 33993 ft | 473 kts | 295° |
| 2026-05-06 20:00 | 41.73978 | -132.29848 | 33993 ft | 473 kts | 295° |
| 2026-05-06 20:00 | 41.76688 | -132.37859 | 33993 ft | 473 kts | 295° |
| 2026-05-06 20:01 | 41.79386 | -132.45859 | 33993 ft | 473 kts | 295° |
| 2026-05-06 20:01 | 41.82091 | -132.53902 | 33993 ft | 473 kts | 295° |
| 2026-05-06 20:02 | 41.84771 | -132.61896 | 33992 ft | 473 kts | 295° |
| 2026-05-06 20:02 | 41.87460 | -132.69949 | 33993 ft | 473 kts | 294° |
| 2026-05-06 20:03 | 41.90131 | -132.77986 | 33993 ft | 473 kts | 294° |
| 2026-05-06 20:03 | 41.92799 | -132.86028 | 33993 ft | 473 kts | 294° |
| 2026-05-06 20:04 | 41.95480 | -132.94121 | 33993 ft | 473 kts | 294° |
| 2026-05-06 20:04 | 41.98134 | -133.02156 | 33993 ft | 473 kts | 294° |
| 2026-05-06 20:05 | 42.00804 | -133.10259 | 33993 ft | 473 kts | 294° |
| 2026-05-06 20:05 | 42.03447 | -133.18304 | 33993 ft | 473 kts | 294° |
| 2026-05-06 20:06 | 42.06104 | -133.26417 | 33993 ft | 473 kts | 294° |
| 2026-05-06 20:06 | 42.08733 | -133.34470 | 33992 ft | 473 kts | 294° |
| 2026-05-06 20:07 | 42.11378 | -133.42563 | 33993 ft | 473 kts | 294° |
| 2026-05-06 20:07 | 42.14031 | -133.50644 | 33993 ft | 473 kts | 294° |
| 2026-05-06 20:08 | 42.16665 | -133.58737 | 33994 ft | 473 kts | 294° |
| 2026-05-06 20:08 | 42.19303 | -133.66896 | 33993 ft | 473 kts | 293° |
| 2026-05-06 20:09 | 42.21910 | -133.75026 | 33993 ft | 473 kts | 293° |
| 2026-05-06 20:09 | 42.24510 | -133.83151 | 33993 ft | 473 kts | 293° |
| 2026-05-06 20:10 | 42.27107 | -133.91281 | 33993 ft | 473 kts | 293° |
| 2026-05-06 20:10 | 42.29693 | -133.99396 | 33993 ft | 473 kts | 293° |
| 2026-05-06 20:11 | 42.32288 | -134.07564 | 33993 ft | 473 kts | 293° |
| 2026-05-06 20:11 | 42.34877 | -134.15736 | 33993 ft | 473 kts | 293° |
| 2026-05-06 20:12 | 42.37460 | -134.23910 | 33993 ft | 473 kts | 293° |
| 2026-05-06 20:12 | 42.40021 | -134.32044 | 33993 ft | 473 kts | 293° |
| 2026-05-06 20:13 | 42.42593 | -134.40237 | 33993 ft | 473 kts | 293° |
| 2026-05-06 20:13 | 42.45158 | -134.48434 | 33993 ft | 473 kts | 293° |
| 2026-05-06 20:14 | 42.47712 | -134.56618 | 33993 ft | 473 kts | 293° |
| 2026-05-06 20:14 | 42.50257 | -134.64803 | 33993 ft | 473 kts | 293° |
| 2026-05-06 20:15 | 42.52788 | -134.72992 | 33993 ft | 473 kts | 292° |
| 2026-05-06 20:15 | 42.55329 | -134.81233 | 33993 ft | 473 kts | 292° |
| 2026-05-06 20:16 | 42.57852 | -134.89430 | 33993 ft | 473 kts | 292° |
| 2026-05-06 20:16 | 42.60378 | -134.97659 | 33993 ft | 473 kts | 292° |
| 2026-05-06 20:17 | 42.62902 | -135.05902 | 33993 ft | 473 kts | 292° |
| 2026-05-06 20:17 | 42.65420 | -135.14153 | 33993 ft | 473 kts | 292° |
| 2026-05-06 20:18 | 42.67917 | -135.22359 | 33993 ft | 473 kts | 292° |
| 2026-05-06 20:18 | 42.70421 | -135.30614 | 33993 ft | 473 kts | 292° |
| 2026-05-06 20:19 | 42.72916 | -135.38867 | 33993 ft | 473 kts | 292° |
| 2026-05-06 20:19 | 42.75421 | -135.47177 | 33993 ft | 473 kts | 292° |
| 2026-05-06 20:20 | 42.77901 | -135.55432 | 33993 ft | 473 kts | 292° |
| 2026-05-06 20:20 | 42.80378 | -135.63704 | 33992 ft | 473 kts | 292° |
| 2026-05-06 20:21 | 42.82840 | -135.71973 | 33993 ft | 473 kts | 292° |
| 2026-05-06 20:21 | 42.85301 | -135.80266 | 33993 ft | 473 kts | 292° |
| 2026-05-06 20:22 | 42.87767 | -135.88592 | 33993 ft | 473 kts | 292° |
| 2026-05-06 20:22 | 42.90207 | -135.96849 | 33993 ft | 473 kts | 292° |
| 2026-05-06 20:23 | 42.92659 | -136.05174 | 33993 ft | 473 kts | 292° |
| 2026-05-06 20:23 | 42.95108 | -136.13512 | 33993 ft | 473 kts | 292° |
| 2026-05-06 20:24 | 42.97545 | -136.21837 | 33993 ft | 473 kts | 292° |
| 2026-05-06 20:24 | 42.99975 | -136.30164 | 33993 ft | 473 kts | 292° |
| 2026-05-06 20:25 | 43.02400 | -136.38503 | 33992 ft | 473 kts | 292° |
| 2026-05-06 20:25 | 43.04816 | -136.46834 | 33992 ft | 473 kts | 292° |
| 2026-05-06 20:26 | 43.07228 | -136.55182 | 33992 ft | 473 kts | 292° |
| 2026-05-06 20:26 | 43.09632 | -136.63531 | 33992 ft | 473 kts | 292° |
| 2026-05-06 20:27 | 43.12044 | -136.71883 | 33992 ft | 473 kts | 291° |
| 2026-05-06 20:27 | 43.14465 | -136.80281 | 33993 ft | 473 kts | 291° |
| 2026-05-06 20:28 | 43.16856 | -136.88641 | 33993 ft | 473 kts | 291° |
| 2026-05-06 20:28 | 43.19228 | -136.96979 | 33993 ft | 473 kts | 291° |
| 2026-05-06 20:29 | 43.21606 | -137.05371 | 33993 ft | 473 kts | 291° |
| 2026-05-06 20:29 | 43.23982 | -137.13785 | 33993 ft | 473 kts | 291° |
| 2026-05-06 20:30 | 43.27522 | -137.26381 | 33993 ft | 473 kts | 291° |
| 2026-05-06 20:31 | 43.29887 | -137.34830 | 33993 ft | 473 kts | 291° |
| 2026-05-06 20:31 | 43.32220 | -137.43198 | 33993 ft | 473 kts | 291° |
| 2026-05-06 20:32 | 43.34566 | -137.51633 | 33993 ft | 473 kts | 291° |
| 2026-05-06 20:32 | 43.36906 | -137.60080 | 33993 ft | 473 kts | 291° |
| 2026-05-06 20:33 | 43.39230 | -137.68506 | 33993 ft | 473 kts | 290° |
| 2026-05-06 20:33 | 43.41556 | -137.76988 | 33993 ft | 473 kts | 290° |
| 2026-05-06 20:34 | 43.43866 | -137.85428 | 33993 ft | 473 kts | 290° |
| 2026-05-06 20:34 | 43.46168 | -137.93858 | 33993 ft | 473 kts | 290° |
| 2026-05-06 20:35 | 43.48481 | -138.02354 | 33993 ft | 473 kts | 290° |
| 2026-05-06 20:35 | 43.50767 | -138.10782 | 33993 ft | 473 kts | 290° |
| 2026-05-06 20:36 | 43.53066 | -138.19282 | 33993 ft | 473 kts | 290° |
| 2026-05-06 20:36 | 43.55354 | -138.27774 | 33993 ft | 473 kts | 290° |
| 2026-05-06 20:37 | 43.57639 | -138.36284 | 33993 ft | 473 kts | 290° |
| 2026-05-06 20:37 | 43.59903 | -138.44740 | 33993 ft | 473 kts | 290° |
| 2026-05-06 20:38 | 43.62176 | -138.53267 | 33993 ft | 473 kts | 290° |
| 2026-05-06 20:38 | 43.64428 | -138.61743 | 33993 ft | 473 kts | 290° |
| 2026-05-06 20:39 | 43.66687 | -138.70290 | 33993 ft | 473 kts | 290° |
| 2026-05-06 20:39 | 43.68926 | -138.78803 | 33993 ft | 473 kts | 290° |
| 2026-05-06 20:40 | 43.71172 | -138.87360 | 33993 ft | 473 kts | 290° |
| 2026-05-06 20:40 | 43.73396 | -138.95853 | 33993 ft | 473 kts | 290° |
| 2026-05-06 20:41 | 43.75631 | -139.04417 | 33993 ft | 473 kts | 290° |
| 2026-05-06 20:41 | 43.77856 | -139.12976 | 33993 ft | 473 kts | 290° |
| 2026-05-06 20:42 | 43.80063 | -139.21492 | 33993 ft | 473 kts | 290° |
| 2026-05-06 20:42 | 43.82276 | -139.30067 | 33993 ft | 473 kts | 290° |
| 2026-05-06 20:43 | 43.84473 | -139.38606 | 33993 ft | 473 kts | 290° |
| 2026-05-06 20:43 | 43.86678 | -139.47211 | 33992 ft | 473 kts | 290° |
| 2026-05-06 20:44 | 43.88864 | -139.55777 | 33992 ft | 473 kts | 290° |
| 2026-05-06 20:44 | 43.91055 | -139.64389 | 33992 ft | 473 kts | 290° |
| 2026-05-06 20:45 | 43.93226 | -139.72981 | 33993 ft | 473 kts | 289° |
| 2026-05-06 20:45 | 43.95385 | -139.81554 | 33993 ft | 473 kts | 289° |
| 2026-05-06 20:46 | 43.97549 | -139.90164 | 33993 ft | 473 kts | 289° |
| 2026-05-06 20:46 | 43.99777 | -139.98726 | 33993 ft | 473 kts | 292° |
| 2026-05-06 20:47 | 44.02516 | -140.06998 | 33994 ft | 473 kts | 296° |
| 2026-05-06 20:47 | 44.05473 | -140.15184 | 33993 ft | 473 kts | 297° |
| 2026-05-06 20:48 | 44.08405 | -140.23308 | 33993 ft | 473 kts | 297° |
| 2026-05-06 20:48 | 44.11356 | -140.31511 | 33993 ft | 473 kts | 297° |
| 2026-05-06 20:49 | 44.14297 | -140.39658 | 33993 ft | 473 kts | 297° |
| 2026-05-06 20:49 | 44.17226 | -140.47839 | 33993 ft | 473 kts | 297° |
| 2026-05-06 20:50 | 44.20139 | -140.56033 | 33993 ft | 473 kts | 296° |
| 2026-05-06 20:50 | 44.23042 | -140.64233 | 33994 ft | 473 kts | 296° |
| 2026-05-06 20:51 | 44.25935 | -140.72458 | 33993 ft | 473 kts | 296° |
| 2026-05-06 20:51 | 44.28831 | -140.80719 | 33993 ft | 473 kts | 296° |
| 2026-05-06 20:52 | 44.31697 | -140.88905 | 33993 ft | 473 kts | 296° |
| 2026-05-06 20:52 | 44.34584 | -140.97166 | 33993 ft | 473 kts | 296° |
| 2026-05-06 20:53 | 44.37459 | -141.05420 | 33993 ft | 473 kts | 296° |
| 2026-05-06 20:53 | 44.40326 | -141.13673 | 33993 ft | 473 kts | 296° |
| 2026-05-06 20:54 | 44.43185 | -141.21927 | 33993 ft | 473 kts | 296° |
| 2026-05-06 20:54 | 44.46037 | -141.30188 | 33993 ft | 473 kts | 296° |
| 2026-05-06 20:55 | 44.48888 | -141.38472 | 33993 ft | 473 kts | 296° |
| 2026-05-06 20:55 | 44.51734 | -141.46765 | 33993 ft | 473 kts | 296° |
| 2026-05-06 20:56 | 44.54577 | -141.55078 | 33993 ft | 473 kts | 296° |
| 2026-05-06 20:56 | 44.57417 | -141.63403 | 33993 ft | 473 kts | 296° |
| 2026-05-06 20:57 | 44.60228 | -141.71690 | 33993 ft | 473 kts | 295° |
| 2026-05-06 20:57 | 44.63045 | -141.80029 | 33993 ft | 473 kts | 295° |
| 2026-05-06 20:58 | 44.65842 | -141.88318 | 33993 ft | 473 kts | 295° |
| 2026-05-06 20:58 | 44.68659 | -141.96687 | 33993 ft | 473 kts | 295° |
| 2026-05-06 20:59 | 44.71468 | -142.05055 | 33993 ft | 473 kts | 295° |
| 2026-05-06 20:59 | 44.74244 | -142.13350 | 33993 ft | 473 kts | 295° |
| 2026-05-06 21:00 | 44.77039 | -142.21727 | 33993 ft | 473 kts | 295° |
| 2026-05-06 21:00 | 44.79832 | -142.30124 | 33993 ft | 473 kts | 295° |
| 2026-05-06 21:01 | 44.82595 | -142.38458 | 33993 ft | 473 kts | 295° |
| 2026-05-06 21:01 | 44.85370 | -142.46855 | 33993 ft | 473 kts | 295° |
| 2026-05-06 21:02 | 44.88137 | -142.55252 | 33992 ft | 473 kts | 295° |
| 2026-05-06 21:02 | 44.90902 | -142.63672 | 33992 ft | 474 kts | 295° |
| 2026-05-06 21:03 | 44.93657 | -142.72107 | 33993 ft | 474 kts | 294° |
| 2026-05-06 21:03 | 44.96391 | -142.80512 | 33993 ft | 474 kts | 294° |
| 2026-05-06 21:04 | 44.99141 | -142.88976 | 33993 ft | 474 kts | 295° |
| 2026-05-06 21:04 | 45.01865 | -142.97383 | 33993 ft | 474 kts | 295° |
| 2026-05-06 21:05 | 45.04600 | -143.05849 | 33993 ft | 474 kts | 295° |
| 2026-05-06 21:05 | 45.07315 | -143.14276 | 33993 ft | 474 kts | 295° |
| 2026-05-06 21:06 | 45.10035 | -143.22749 | 33993 ft | 474 kts | 294° |
| 2026-05-06 21:06 | 45.12766 | -143.31201 | 33993 ft | 474 kts | 295° |
| 2026-05-06 21:07 | 45.15499 | -143.39694 | 33993 ft | 474 kts | 295° |
| 2026-05-06 21:07 | 45.18192 | -143.48135 | 33993 ft | 474 kts | 295° |
| 2026-05-06 21:08 | 45.20896 | -143.56657 | 33993 ft | 474 kts | 294° |
| 2026-05-06 21:08 | 45.23573 | -143.65131 | 33994 ft | 474 kts | 294° |
| 2026-05-06 21:09 | 45.26250 | -143.73662 | 33993 ft | 474 kts | 294° |
| 2026-05-06 21:09 | 45.28919 | -143.82188 | 33993 ft | 474 kts | 294° |
| 2026-05-06 21:10 | 45.31579 | -143.90703 | 33993 ft | 474 kts | 294° |
| 2026-05-06 21:10 | 45.34248 | -143.99268 | 33993 ft | 474 kts | 294° |
| 2026-05-06 21:11 | 45.36909 | -144.07834 | 33993 ft | 474 kts | 294° |
| 2026-05-06 21:11 | 45.39545 | -144.16348 | 33993 ft | 474 kts | 294° |
| 2026-05-06 21:12 | 45.42193 | -144.24930 | 33993 ft | 474 kts | 294° |
| 2026-05-06 21:12 | 45.44828 | -144.33498 | 33993 ft | 474 kts | 294° |
| 2026-05-06 21:13 | 45.47460 | -144.42082 | 33993 ft | 474 kts | 294° |
| 2026-05-06 21:13 | 45.50069 | -144.50623 | 33993 ft | 474 kts | 294° |
| 2026-05-06 21:14 | 45.52688 | -144.59224 | 33993 ft | 474 kts | 294° |
| 2026-05-06 21:14 | 45.55298 | -144.67830 | 33993 ft | 474 kts | 293° |
| 2026-05-06 21:15 | 45.57894 | -144.76443 | 33993 ft | 474 kts | 293° |
| 2026-05-06 21:15 | 45.60483 | -144.85054 | 33993 ft | 474 kts | 293° |
| 2026-05-06 21:16 | 45.63074 | -144.93689 | 33993 ft | 474 kts | 293° |
| 2026-05-06 21:16 | 45.65651 | -145.02300 | 33993 ft | 474 kts | 293° |
| 2026-05-06 21:17 | 45.68238 | -145.10973 | 33993 ft | 474 kts | 293° |
| 2026-05-06 21:17 | 45.70799 | -145.19588 | 33993 ft | 474 kts | 293° |
| 2026-05-06 21:18 | 45.73371 | -145.28273 | 33993 ft | 474 kts | 293° |
| 2026-05-06 21:18 | 45.75917 | -145.36897 | 33993 ft | 474 kts | 293° |
| 2026-05-06 21:19 | 45.78478 | -145.45601 | 33993 ft | 474 kts | 293° |
| 2026-05-06 21:19 | 45.81031 | -145.54309 | 33992 ft | 474 kts | 293° |
| 2026-05-06 21:20 | 45.83569 | -145.62997 | 33992 ft | 474 kts | 293° |
| 2026-05-06 21:20 | 45.86088 | -145.71670 | 33993 ft | 474 kts | 292° |
| 2026-05-06 21:21 | 45.88615 | -145.80406 | 33993 ft | 474 kts | 292° |
| 2026-05-06 21:21 | 45.91132 | -145.89127 | 33993 ft | 474 kts | 292° |
| 2026-05-06 21:22 | 45.93640 | -145.97838 | 33993 ft | 474 kts | 292° |
| 2026-05-06 21:22 | 45.96139 | -146.06549 | 33993 ft | 474 kts | 292° |
| 2026-05-06 21:23 | 45.98634 | -146.15273 | 33993 ft | 474 kts | 292° |
| 2026-05-06 21:23 | 46.01127 | -146.24019 | 33993 ft | 474 kts | 292° |
| 2026-05-06 21:24 | 46.03612 | -146.32773 | 33993 ft | 474 kts | 292° |
| 2026-05-06 21:24 | 46.06089 | -146.41528 | 33992 ft | 474 kts | 292° |
| 2026-05-06 21:25 | 46.08556 | -146.50278 | 33992 ft | 474 kts | 292° |
| 2026-05-06 21:25 | 46.11041 | -146.59099 | 33993 ft | 474 kts | 292° |
| 2026-05-06 21:26 | 46.13516 | -146.67839 | 33993 ft | 474 kts | 292° |
| 2026-05-06 21:26 | 46.15978 | -146.76637 | 33993 ft | 474 kts | 291° |
| 2026-05-06 21:27 | 46.18409 | -146.85387 | 33993 ft | 474 kts | 291° |
| 2026-05-06 21:27 | 46.20849 | -146.94199 | 33993 ft | 474 kts | 291° |
| 2026-05-06 21:28 | 46.23278 | -147.03006 | 33993 ft | 474 kts | 291° |
| 2026-05-06 21:28 | 46.25704 | -147.11836 | 33993 ft | 474 kts | 291° |
| 2026-05-06 21:29 | 46.28126 | -147.20680 | 33993 ft | 474 kts | 291° |
| 2026-05-06 21:29 | 46.30537 | -147.29517 | 33993 ft | 474 kts | 291° |
| 2026-05-06 21:30 | 46.32937 | -147.38348 | 33993 ft | 474 kts | 291° |
| 2026-05-06 21:30 | 46.35344 | -147.47237 | 33993 ft | 474 kts | 291° |
| 2026-05-06 21:31 | 46.37734 | -147.56099 | 33993 ft | 474 kts | 291° |
| 2026-05-06 21:31 | 46.40116 | -147.64960 | 33993 ft | 474 kts | 291° |
| 2026-05-06 21:32 | 46.42473 | -147.73790 | 33993 ft | 474 kts | 291° |
| 2026-05-06 21:32 | 46.46023 | -147.87141 | 33993 ft | 474 kts | 291° |
| 2026-05-06 21:33 | 46.48388 | -147.96063 | 33993 ft | 474 kts | 291° |
| 2026-05-06 21:33 | 46.50733 | -148.04938 | 33993 ft | 474 kts | 291° |
| 2026-05-06 21:34 | 46.53083 | -148.13869 | 33993 ft | 474 kts | 291° |
| 2026-05-06 21:34 | 46.55415 | -148.22760 | 33993 ft | 474 kts | 291° |
| 2026-05-06 21:35 | 46.57755 | -148.31717 | 33993 ft | 474 kts | 291° |
| 2026-05-06 21:35 | 46.60077 | -148.40640 | 33993 ft | 474 kts | 291° |
| 2026-05-06 21:36 | 46.62392 | -148.49576 | 33993 ft | 474 kts | 291° |
| 2026-05-06 21:36 | 46.64703 | -148.58522 | 33993 ft | 474 kts | 291° |
| 2026-05-06 21:37 | 46.67009 | -148.67496 | 33993 ft | 474 kts | 290° |
| 2026-05-06 21:37 | 46.69293 | -148.76439 | 33993 ft | 474 kts | 290° |
| 2026-05-06 21:38 | 46.71571 | -148.85382 | 33993 ft | 474 kts | 290° |
| 2026-05-06 21:38 | 46.73856 | -148.94379 | 33993 ft | 474 kts | 290° |
| 2026-05-06 21:39 | 46.76138 | -149.03394 | 33993 ft | 474 kts | 290° |
| 2026-05-06 21:39 | 46.78408 | -149.12393 | 33993 ft | 474 kts | 290° |
| 2026-05-06 21:40 | 46.80664 | -149.21378 | 33993 ft | 474 kts | 290° |
| 2026-05-06 21:40 | 46.82918 | -149.30385 | 33993 ft | 474 kts | 290° |
| 2026-05-06 21:41 | 46.85159 | -149.39380 | 33993 ft | 474 kts | 290° |
| 2026-05-06 21:41 | 46.87397 | -149.48393 | 33992 ft | 474 kts | 290° |
| 2026-05-06 21:42 | 46.89628 | -149.57420 | 33992 ft | 474 kts | 290° |
| 2026-05-06 21:42 | 46.91850 | -149.66454 | 33992 ft | 474 kts | 289° |
| 2026-05-06 21:43 | 46.94069 | -149.75536 | 33993 ft | 474 kts | 289° |
| 2026-05-06 21:43 | 46.96279 | -149.84607 | 33993 ft | 474 kts | 289° |
| 2026-05-06 21:44 | 46.98473 | -149.93637 | 33993 ft | 474 kts | 290° |
| 2026-05-06 21:44 | 47.00984 | -150.02516 | 33994 ft | 474 kts | 296° |
| 2026-05-06 21:45 | 47.04020 | -150.11121 | 33994 ft | 474 kts | 298° |
| 2026-05-06 21:45 | 47.07107 | -150.19615 | 33993 ft | 474 kts | 298° |
| 2026-05-06 21:46 | 47.10169 | -150.28084 | 33993 ft | 474 kts | 298° |
| 2026-05-06 21:46 | 47.13268 | -150.36624 | 33993 ft | 474 kts | 298° |
| 2026-05-06 21:47 | 47.16351 | -150.45174 | 33993 ft | 474 kts | 298° |
| 2026-05-06 21:47 | 47.19395 | -150.53682 | 33993 ft | 474 kts | 298° |
| 2026-05-06 21:48 | 47.22445 | -150.62248 | 33994 ft | 474 kts | 298° |
| 2026-05-06 21:48 | 47.25484 | -150.70837 | 33993 ft | 474 kts | 297° |
| 2026-05-06 21:49 | 47.28496 | -150.79391 | 33993 ft | 474 kts | 297° |
| 2026-05-06 21:49 | 47.31515 | -150.87978 | 33993 ft | 474 kts | 297° |
| 2026-05-06 21:50 | 47.34535 | -150.96587 | 33993 ft | 474 kts | 297° |
| 2026-05-06 21:50 | 47.37551 | -151.05211 | 33993 ft | 474 kts | 297° |
| 2026-05-06 21:51 | 47.40557 | -151.13835 | 33993 ft | 474 kts | 297° |
| 2026-05-06 21:51 | 47.43555 | -151.22461 | 33993 ft | 474 kts | 297° |
| 2026-05-06 21:52 | 47.46544 | -151.31090 | 33993 ft | 474 kts | 297° |
| 2026-05-06 21:52 | 47.49522 | -151.39719 | 33993 ft | 474 kts | 297° |
| 2026-05-06 21:53 | 47.52518 | -151.48424 | 33993 ft | 474 kts | 297° |
| 2026-05-06 21:53 | 47.55487 | -151.57083 | 33993 ft | 474 kts | 297° |
| 2026-05-06 21:54 | 47.58456 | -151.65770 | 33993 ft | 474 kts | 296° |
| 2026-05-06 21:54 | 47.61405 | -151.74454 | 33993 ft | 474 kts | 296° |
| 2026-05-06 21:55 | 47.64344 | -151.83133 | 33993 ft | 474 kts | 296° |
| 2026-05-06 21:55 | 47.67289 | -151.91846 | 33993 ft | 474 kts | 296° |
| 2026-05-06 21:56 | 47.70232 | -152.00574 | 33993 ft | 474 kts | 296° |
| 2026-05-06 21:56 | 47.73165 | -152.09303 | 33993 ft | 474 kts | 296° |
| 2026-05-06 21:57 | 47.76089 | -152.18033 | 33993 ft | 474 kts | 296° |
| 2026-05-06 21:57 | 47.79007 | -152.26773 | 33993 ft | 474 kts | 296° |
| 2026-05-06 21:58 | 47.81920 | -152.35529 | 33993 ft | 474 kts | 296° |
| 2026-05-06 21:58 | 47.84823 | -152.44287 | 33993 ft | 474 kts | 296° |
| 2026-05-06 21:59 | 47.87723 | -152.53064 | 33992 ft | 474 kts | 296° |
| 2026-05-06 21:59 | 47.90615 | -152.61844 | 33992 ft | 474 kts | 296° |
| 2026-05-06 22:00 | 47.93497 | -152.70639 | 33993 ft | 474 kts | 296° |
| 2026-05-06 22:00 | 47.96378 | -152.79478 | 33993 ft | 474 kts | 296° |
| 2026-05-06 22:01 | 47.99245 | -152.88289 | 33993 ft | 474 kts | 296° |
| 2026-05-06 22:01 | 48.02103 | -152.97092 | 33993 ft | 474 kts | 296° |
| 2026-05-06 22:02 | 48.04979 | -153.05978 | 33993 ft | 474 kts | 296° |
| 2026-05-06 22:02 | 48.07826 | -153.14809 | 33993 ft | 474 kts | 296° |
| 2026-05-06 22:03 | 48.10668 | -153.23645 | 33993 ft | 474 kts | 296° |
| 2026-05-06 22:03 | 48.13540 | -153.32516 | 33993 ft | 474 kts | 296° |
| 2026-05-06 22:04 | 48.16393 | -153.41394 | 33993 ft | 474 kts | 296° |
| 2026-05-06 22:04 | 48.19221 | -153.50264 | 33993 ft | 474 kts | 296° |
| 2026-05-06 22:05 | 48.22037 | -153.59142 | 33994 ft | 474 kts | 296° |
| 2026-05-06 22:05 | 48.24856 | -153.68071 | 33993 ft | 474 kts | 295° |
| 2026-05-06 22:06 | 48.27640 | -153.76950 | 33993 ft | 474 kts | 295° |
| 2026-05-06 22:06 | 48.30437 | -153.85887 | 33993 ft | 474 kts | 295° |
| 2026-05-06 22:07 | 48.33221 | -153.94803 | 33993 ft | 474 kts | 295° |
| 2026-05-06 22:07 | 48.36023 | -154.03804 | 33993 ft | 474 kts | 295° |
| 2026-05-06 22:08 | 48.38800 | -154.12756 | 33993 ft | 474 kts | 295° |
| 2026-05-06 22:08 | 48.41566 | -154.21707 | 33993 ft | 474 kts | 295° |
| 2026-05-06 22:09 | 48.44323 | -154.30658 | 33993 ft | 474 kts | 295° |
| 2026-05-06 22:09 | 48.47072 | -154.39618 | 33993 ft | 474 kts | 295° |
| 2026-05-06 22:10 | 48.49835 | -154.48654 | 33993 ft | 474 kts | 295° |
| 2026-05-06 22:10 | 48.52571 | -154.57632 | 33993 ft | 474 kts | 295° |
| 2026-05-06 22:11 | 48.55316 | -154.66679 | 33993 ft | 474 kts | 294° |
| 2026-05-06 22:11 | 48.58022 | -154.75658 | 33993 ft | 474 kts | 294° |
| 2026-05-06 22:12 | 48.60740 | -154.84695 | 33993 ft | 474 kts | 294° |
| 2026-05-06 22:12 | 48.63459 | -154.93759 | 33993 ft | 474 kts | 294° |
| 2026-05-06 22:13 | 48.66159 | -155.02789 | 33993 ft | 474 kts | 294° |
| 2026-05-06 22:13 | 48.68857 | -155.11844 | 33993 ft | 474 kts | 294° |
| 2026-05-06 22:14 | 48.71560 | -155.20947 | 33993 ft | 474 kts | 294° |
| 2026-05-06 22:14 | 48.74234 | -155.29988 | 33993 ft | 474 kts | 294° |
| 2026-05-06 22:15 | 48.76922 | -155.39110 | 33993 ft | 474 kts | 294° |
| 2026-05-06 22:15 | 48.79584 | -155.48175 | 33993 ft | 474 kts | 294° |
| 2026-05-06 22:16 | 48.82259 | -155.57321 | 33992 ft | 474 kts | 294° |
| 2026-05-06 22:16 | 48.84903 | -155.66393 | 33992 ft | 474 kts | 294° |
| 2026-05-06 22:17 | 48.87547 | -155.75529 | 33993 ft | 474 kts | 294° |
| 2026-05-06 22:17 | 48.90185 | -155.84670 | 33993 ft | 474 kts | 294° |
| 2026-05-06 22:18 | 48.92826 | -155.93845 | 33993 ft | 474 kts | 294° |
| 2026-05-06 22:18 | 48.95447 | -156.02980 | 33993 ft | 474 kts | 294° |
| 2026-05-06 22:19 | 48.98081 | -156.12192 | 33993 ft | 474 kts | 294° |
| 2026-05-06 22:19 | 49.00688 | -156.21346 | 33993 ft | 474 kts | 294° |
| 2026-05-06 22:20 | 49.03289 | -156.30512 | 33993 ft | 474 kts | 294° |
| 2026-05-06 22:20 | 49.05896 | -156.39735 | 33992 ft | 474 kts | 294° |
| 2026-05-06 22:21 | 49.08477 | -156.48901 | 33992 ft | 474 kts | 294° |
| 2026-05-06 22:21 | 49.11078 | -156.58153 | 33993 ft | 474 kts | 294° |
| 2026-05-06 22:22 | 49.13684 | -156.67371 | 33993 ft | 474 kts | 293° |
| 2026-05-06 22:22 | 49.16258 | -156.76594 | 33993 ft | 474 kts | 293° |
| 2026-05-06 22:23 | 49.18823 | -156.85843 | 33993 ft | 474 kts | 292° |
| 2026-05-06 22:23 | 49.21378 | -156.95097 | 33993 ft | 474 kts | 292° |
| 2026-05-06 22:24 | 49.23925 | -157.04358 | 33993 ft | 474 kts | 292° |
| 2026-05-06 22:24 | 49.26458 | -157.13605 | 33993 ft | 474 kts | 292° |
| 2026-05-06 22:25 | 49.28996 | -157.22908 | 33993 ft | 474 kts | 292° |
| 2026-05-06 22:25 | 49.31514 | -157.32173 | 33993 ft | 474 kts | 292° |
| 2026-05-06 22:26 | 49.34040 | -157.41501 | 33993 ft | 474 kts | 292° |
| 2026-05-06 22:26 | 49.36541 | -157.50777 | 33993 ft | 474 kts | 292° |
| 2026-05-06 22:27 | 49.39053 | -157.60132 | 33993 ft | 474 kts | 292° |
| 2026-05-06 22:27 | 49.41532 | -157.69408 | 33993 ft | 474 kts | 292° |
| 2026-05-06 22:28 | 49.44030 | -157.78812 | 33993 ft | 474 kts | 292° |
| 2026-05-06 22:28 | 49.46493 | -157.88112 | 33993 ft | 474 kts | 292° |
| 2026-05-06 22:29 | 49.48969 | -157.97485 | 33993 ft | 474 kts | 292° |
| 2026-05-06 22:29 | 49.51436 | -158.06860 | 33993 ft | 474 kts | 292° |
| 2026-05-06 22:30 | 49.53888 | -158.16217 | 33993 ft | 474 kts | 292° |
| 2026-05-06 22:30 | 49.56347 | -158.25636 | 33993 ft | 474 kts | 292° |
| 2026-05-06 22:31 | 49.58781 | -158.34999 | 33993 ft | 474 kts | 292° |
| 2026-05-06 22:31 | 49.61209 | -158.44380 | 33993 ft | 474 kts | 292° |
| 2026-05-06 22:32 | 49.63647 | -158.53834 | 33993 ft | 474 kts | 292° |
| 2026-05-06 22:32 | 49.66060 | -158.63229 | 33993 ft | 474 kts | 292° |
| 2026-05-06 22:33 | 49.68476 | -158.72702 | 33993 ft | 474 kts | 291° |
| 2026-05-06 22:33 | 49.70864 | -158.82106 | 33993 ft | 474 kts | 291° |
| 2026-05-06 22:34 | 49.73264 | -158.91577 | 33993 ft | 474 kts | 291° |
| 2026-05-06 22:34 | 49.75651 | -159.01035 | 33993 ft | 474 kts | 291° |
| 2026-05-06 22:35 | 49.78029 | -159.10495 | 33993 ft | 474 kts | 291° |
| 2026-05-06 22:35 | 49.80403 | -159.19977 | 33993 ft | 474 kts | 291° |
| 2026-05-06 22:36 | 49.82766 | -159.29459 | 33993 ft | 474 kts | 291° |
| 2026-05-06 22:36 | 49.85122 | -159.38950 | 33993 ft | 474 kts | 291° |
| 2026-05-06 22:37 | 49.87473 | -159.48465 | 33992 ft | 474 kts | 291° |
| 2026-05-06 22:37 | 49.89814 | -159.57980 | 33992 ft | 474 kts | 291° |
| 2026-05-06 22:38 | 49.92152 | -159.67529 | 33993 ft | 474 kts | 290° |
| 2026-05-06 22:38 | 49.94463 | -159.77037 | 33993 ft | 474 kts | 290° |
| 2026-05-06 22:39 | 49.96788 | -159.86630 | 33993 ft | 474 kts | 290° |
| 2026-05-06 22:39 | 49.99070 | -159.96159 | 33993 ft | 474 kts | 289° |
| 2026-05-06 22:40 | 50.00903 | -160.06010 | 33991 ft | 474 kts | 283° |
| 2026-05-06 22:40 | 50.02357 | -160.15985 | 33993 ft | 474 kts | 282° |
| 2026-05-06 22:41 | 50.04481 | -160.30913 | 33992 ft | 474 kts | 283° |
| 2026-05-06 22:42 | 50.05896 | -160.40889 | 33992 ft | 474 kts | 283° |
| 2026-05-06 22:42 | 50.07306 | -160.50870 | 33992 ft | 474 kts | 283° |
| 2026-05-06 22:43 | 50.08709 | -160.60863 | 33992 ft | 474 kts | 283° |
| 2026-05-06 22:43 | 50.10102 | -160.70854 | 33993 ft | 474 kts | 282° |
| 2026-05-06 22:44 | 50.11518 | -160.80899 | 33993 ft | 474 kts | 282° |
| 2026-05-06 22:44 | 50.12907 | -160.90845 | 33993 ft | 474 kts | 282° |
| 2026-05-06 22:45 | 50.14284 | -161.00859 | 33993 ft | 474 kts | 282° |
| 2026-05-06 22:45 | 50.15654 | -161.10936 | 33993 ft | 474 kts | 282° |
| 2026-05-06 22:46 | 50.17004 | -161.20941 | 33993 ft | 474 kts | 282° |
| 2026-05-06 22:46 | 50.18348 | -161.30974 | 33993 ft | 474 kts | 282° |
| 2026-05-06 22:47 | 50.19683 | -161.41011 | 33993 ft | 474 kts | 282° |
| 2026-05-06 22:47 | 50.21009 | -161.51062 | 33993 ft | 474 kts | 282° |
| 2026-05-06 22:48 | 50.22326 | -161.61107 | 33994 ft | 474 kts | 282° |
| 2026-05-06 22:48 | 50.23632 | -161.71156 | 33993 ft | 474 kts | 281° |
| 2026-05-06 22:49 | 50.24927 | -161.81206 | 33993 ft | 474 kts | 281° |
| 2026-05-06 22:49 | 50.26219 | -161.91292 | 33993 ft | 474 kts | 281° |
| 2026-05-06 22:50 | 50.27503 | -162.01376 | 33993 ft | 474 kts | 281° |
| 2026-05-06 22:50 | 50.28770 | -162.11398 | 33993 ft | 474 kts | 281° |
| 2026-05-06 22:51 | 50.30035 | -162.21478 | 33993 ft | 474 kts | 281° |
| 2026-05-06 22:51 | 50.31290 | -162.31560 | 33993 ft | 474 kts | 281° |
| 2026-05-06 22:52 | 50.32546 | -162.41715 | 33993 ft | 474 kts | 281° |
| 2026-05-06 22:52 | 50.33783 | -162.51800 | 33993 ft | 474 kts | 281° |
| 2026-05-06 22:53 | 50.35015 | -162.61916 | 33993 ft | 474 kts | 281° |
| 2026-05-06 22:53 | 50.36231 | -162.71995 | 33993 ft | 474 kts | 280° |
| 2026-05-06 22:54 | 50.37447 | -162.82167 | 33993 ft | 474 kts | 280° |
| 2026-05-06 22:54 | 50.38652 | -162.92305 | 33993 ft | 474 kts | 280° |
| 2026-05-06 22:55 | 50.39844 | -163.02412 | 33993 ft | 475 kts | 280° |
| 2026-05-06 22:55 | 50.41034 | -163.12569 | 33993 ft | 475 kts | 280° |
| 2026-05-06 22:56 | 50.42215 | -163.22736 | 33993 ft | 475 kts | 280° |
| 2026-05-06 22:56 | 50.43385 | -163.32892 | 33993 ft | 475 kts | 280° |
| 2026-05-06 22:57 | 50.44549 | -163.43071 | 33993 ft | 475 kts | 280° |
| 2026-05-06 22:57 | 50.45706 | -163.53271 | 33993 ft | 475 kts | 280° |
| 2026-05-06 22:58 | 50.46846 | -163.63413 | 33993 ft | 475 kts | 280° |
| 2026-05-06 22:58 | 50.47985 | -163.73642 | 33993 ft | 475 kts | 279° |
| 2026-05-06 22:59 | 50.49111 | -163.83847 | 33993 ft | 475 kts | 279° |
| 2026-05-06 22:59 | 50.50224 | -163.94009 | 33993 ft | 475 kts | 279° |
| 2026-05-06 23:00 | 50.51335 | -164.04227 | 33993 ft | 475 kts | 279° |
| 2026-05-06 23:00 | 50.52436 | -164.14432 | 33993 ft | 476 kts | 279° |
| 2026-05-06 23:01 | 50.53525 | -164.24626 | 33993 ft | 476 kts | 279° |
| 2026-05-06 23:01 | 50.54613 | -164.34883 | 33993 ft | 476 kts | 279° |
| 2026-05-06 23:02 | 50.55686 | -164.45096 | 33993 ft | 476 kts | 279° |
| 2026-05-06 23:02 | 50.56752 | -164.55335 | 33993 ft | 476 kts | 279° |
| 2026-05-06 23:03 | 50.57813 | -164.65611 | 33993 ft | 476 kts | 279° |
| 2026-05-06 23:03 | 50.58858 | -164.75850 | 33993 ft | 476 kts | 279° |
| 2026-05-06 23:04 | 50.59896 | -164.86116 | 33993 ft | 476 kts | 279° |
| 2026-05-06 23:04 | 50.60927 | -164.96388 | 33993 ft | 476 kts | 279° |
| 2026-05-06 23:05 | 50.61949 | -165.06661 | 33993 ft | 476 kts | 279° |
| 2026-05-06 23:05 | 50.62962 | -165.16933 | 33993 ft | 476 kts | 279° |
| 2026-05-06 23:06 | 50.63966 | -165.27214 | 33993 ft | 476 kts | 279° |
| 2026-05-06 23:06 | 50.64967 | -165.37560 | 33993 ft | 483 kts | 279° |
| 2026-05-06 23:07 | 50.65978 | -165.48128 | 33992 ft | 488 kts | 279° |
| 2026-05-06 23:07 | 50.66976 | -165.58668 | 33992 ft | 488 kts | 279° |
| 2026-05-06 23:08 | 50.67965 | -165.69218 | 33993 ft | 488 kts | 278° |
| 2026-05-06 23:08 | 50.68942 | -165.79756 | 33993 ft | 488 kts | 278° |
| 2026-05-06 23:09 | 50.69912 | -165.90312 | 33993 ft | 488 kts | 278° |
| 2026-05-06 23:09 | 50.70875 | -166.00891 | 33993 ft | 488 kts | 278° |
| 2026-05-06 23:10 | 50.71830 | -166.11470 | 33993 ft | 488 kts | 278° |
| 2026-05-06 23:10 | 50.72773 | -166.22043 | 33993 ft | 488 kts | 278° |
| 2026-05-06 23:11 | 50.73707 | -166.32625 | 33993 ft | 488 kts | 278° |
| 2026-05-06 23:11 | 50.74630 | -166.43192 | 33993 ft | 488 kts | 278° |
| 2026-05-06 23:12 | 50.75546 | -166.53787 | 33993 ft | 488 kts | 278° |
| 2026-05-06 23:12 | 50.76451 | -166.64380 | 33992 ft | 488 kts | 278° |
| 2026-05-06 23:13 | 50.77341 | -166.74934 | 33993 ft | 488 kts | 277° |
| 2026-05-06 23:13 | 50.78226 | -166.85536 | 33993 ft | 488 kts | 277° |
| 2026-05-06 23:14 | 50.79102 | -166.96146 | 33993 ft | 488 kts | 277° |
| 2026-05-06 23:14 | 50.79972 | -167.06792 | 33993 ft | 488 kts | 277° |
| 2026-05-06 23:15 | 50.80827 | -167.17375 | 33993 ft | 488 kts | 277° |
| 2026-05-06 23:15 | 50.81673 | -167.27968 | 33993 ft | 488 kts | 277° |
| 2026-05-06 23:16 | 50.82516 | -167.38664 | 33993 ft | 488 kts | 277° |
| 2026-05-06 23:16 | 50.83345 | -167.49292 | 33992 ft | 488 kts | 277° |
| 2026-05-06 23:17 | 50.84164 | -167.59924 | 33992 ft | 488 kts | 277° |
| 2026-05-06 23:17 | 50.84971 | -167.70525 | 33993 ft | 488 kts | 276° |
| 2026-05-06 23:18 | 50.85766 | -167.81128 | 33993 ft | 488 kts | 276° |
| 2026-05-06 23:18 | 50.86554 | -167.91759 | 33993 ft | 488 kts | 276° |
| 2026-05-06 23:19 | 50.87334 | -168.02418 | 33993 ft | 488 kts | 276° |
| 2026-05-06 23:19 | 50.88105 | -168.13069 | 33993 ft | 488 kts | 276° |
| 2026-05-06 23:20 | 50.88866 | -168.23723 | 33993 ft | 488 kts | 276° |
| 2026-05-06 23:20 | 50.89617 | -168.34376 | 33993 ft | 488 kts | 276° |
| 2026-05-06 23:21 | 50.90360 | -168.45058 | 33992 ft | 488 kts | 276° |
| 2026-05-06 23:21 | 50.91093 | -168.55740 | 33992 ft | 488 kts | 276° |
| 2026-05-06 23:22 | 50.91813 | -168.66365 | 33992 ft | 488 kts | 276° |
| 2026-05-06 23:22 | 50.92523 | -168.77035 | 33993 ft | 488 kts | 276° |
| 2026-05-06 23:23 | 50.93224 | -168.87688 | 33993 ft | 488 kts | 276° |
| 2026-05-06 23:23 | 50.93917 | -168.98383 | 33993 ft | 488 kts | 276° |
| 2026-05-06 23:24 | 50.94603 | -169.09100 | 33993 ft | 488 kts | 276° |
| 2026-05-06 23:24 | 50.95274 | -169.19746 | 33993 ft | 488 kts | 276° |
| 2026-05-06 23:25 | 50.95938 | -169.30453 | 33993 ft | 488 kts | 276° |
| 2026-05-06 23:25 | 50.96589 | -169.41084 | 33992 ft | 488 kts | 276° |
| 2026-05-06 23:26 | 50.97234 | -169.51804 | 33992 ft | 488 kts | 276° |
| 2026-05-06 23:26 | 50.97866 | -169.62459 | 33992 ft | 488 kts | 276° |
| 2026-05-06 23:27 | 50.98493 | -169.73216 | 33993 ft | 488 kts | 275° |
| 2026-05-06 23:27 | 50.99106 | -169.83903 | 33993 ft | 488 kts | 275° |
| 2026-05-06 23:28 | 50.99707 | -169.94588 | 33993 ft | 488 kts | 275° |
| 2026-05-06 23:28 | 51.00267 | -170.05328 | 33993 ft | 488 kts | 274° |
| 2026-05-06 23:29 | 51.00713 | -170.16014 | 33993 ft | 488 kts | 274° |
| 2026-05-06 23:29 | 51.01142 | -170.26709 | 33993 ft | 488 kts | 274° |
| 2026-05-06 23:30 | 51.01568 | -170.37476 | 33992 ft | 488 kts | 274° |
| 2026-05-06 23:30 | 51.01985 | -170.48177 | 33992 ft | 488 kts | 274° |
| 2026-05-06 23:31 | 51.02396 | -170.58945 | 33992 ft | 488 kts | 274° |
| 2026-05-06 23:31 | 51.02794 | -170.69650 | 33993 ft | 488 kts | 273° |
| 2026-05-06 23:32 | 51.03184 | -170.80388 | 33993 ft | 488 kts | 273° |
| 2026-05-06 23:32 | 51.03565 | -170.91148 | 33993 ft | 488 kts | 273° |
| 2026-05-06 23:33 | 51.03936 | -171.01916 | 33993 ft | 488 kts | 273° |
| 2026-05-06 23:33 | 51.04294 | -171.12599 | 33993 ft | 488 kts | 273° |
| 2026-05-06 23:34 | 51.04646 | -171.23395 | 33993 ft | 488 kts | 273° |
| 2026-05-06 23:34 | 51.04987 | -171.34140 | 33992 ft | 488 kts | 273° |
| 2026-05-06 23:35 | 51.05316 | -171.44827 | 33992 ft | 488 kts | 273° |
| 2026-05-06 23:35 | 51.05638 | -171.55595 | 33992 ft | 488 kts | 273° |
| 2026-05-06 23:36 | 51.05949 | -171.66338 | 33992 ft | 488 kts | 272° |
| 2026-05-06 23:36 | 51.06251 | -171.77141 | 33993 ft | 488 kts | 272° |
| 2026-05-06 23:37 | 51.06541 | -171.87865 | 33993 ft | 488 kts | 272° |
| 2026-05-06 23:37 | 51.06823 | -171.98622 | 33993 ft | 488 kts | 272° |
| 2026-05-06 23:38 | 51.07095 | -172.09381 | 33993 ft | 488 kts | 272° |
| 2026-05-06 23:38 | 51.07356 | -172.20105 | 33993 ft | 488 kts | 272° |
| 2026-05-06 23:39 | 51.07608 | -172.30878 | 33992 ft | 488 kts | 272° |
| 2026-05-06 23:39 | 51.07849 | -172.41606 | 33992 ft | 488 kts | 272° |
| 2026-05-06 23:40 | 51.08082 | -172.52377 | 33992 ft | 488 kts | 272° |
| 2026-05-06 23:40 | 51.08305 | -172.63158 | 33992 ft | 488 kts | 272° |
| 2026-05-06 23:41 | 51.08517 | -172.73901 | 33993 ft | 488 kts | 271° |
| 2026-05-06 23:41 | 51.08721 | -172.84717 | 33993 ft | 488 kts | 271° |
| 2026-05-06 23:42 | 51.08913 | -172.95432 | 33993 ft | 488 kts | 271° |
| 2026-05-06 23:42 | 51.09096 | -173.06220 | 33993 ft | 488 kts | 271° |
| 2026-05-06 23:43 | 51.09269 | -173.17006 | 33993 ft | 488 kts | 271° |
| 2026-05-06 23:43 | 51.09431 | -173.27722 | 33993 ft | 488 kts | 271° |
| 2026-05-06 23:44 | 51.09585 | -173.38518 | 33992 ft | 488 kts | 271° |
| 2026-05-06 23:44 | 51.09728 | -173.49275 | 33992 ft | 488 kts | 271° |
| 2026-05-06 23:45 | 51.09862 | -173.60063 | 33992 ft | 488 kts | 271° |
| 2026-05-06 23:45 | 51.09983 | -173.70612 | 33993 ft | 488 kts | 271° |
| 2026-05-06 23:46 | 51.10117 | -173.81334 | 33993 ft | 488 kts | 271° |
| 2026-05-06 23:46 | 51.10248 | -173.92116 | 33993 ft | 488 kts | 271° |
| 2026-05-06 23:47 | 51.10354 | -174.02907 | 33993 ft | 488 kts | 271° |
| 2026-05-06 23:47 | 51.10441 | -174.13643 | 33993 ft | 488 kts | 271° |
| 2026-05-06 23:48 | 51.10516 | -174.24391 | 33993 ft | 488 kts | 271° |
| 2026-05-06 23:48 | 51.10582 | -174.35214 | 33993 ft | 488 kts | 271° |
| 2026-05-06 23:49 | 51.10636 | -174.45956 | 33994 ft | 488 kts | 271° |
| 2026-05-06 23:49 | 51.10681 | -174.56712 | 33994 ft | 488 kts | 271° |
| 2026-05-06 23:50 | 51.10716 | -174.67506 | 33994 ft | 488 kts | 270° |
| 2026-05-06 23:50 | 51.10749 | -174.83595 | 33993 ft | 488 kts | 270° |
| 2026-05-06 23:51 | 51.10759 | -174.94385 | 33993 ft | 488 kts | 270° |
| 2026-05-06 23:51 | 51.10759 | -175.05200 | 33993 ft | 488 kts | 270° |
| 2026-05-06 23:52 | 51.10749 | -175.15929 | 33993 ft | 488 kts | 270° |
| 2026-05-06 23:52 | 51.10730 | -175.26663 | 33993 ft | 488 kts | 270° |
| 2026-05-06 23:53 | 51.10701 | -175.37486 | 33993 ft | 488 kts | 270° |
| 2026-05-06 23:53 | 51.10661 | -175.48227 | 33994 ft | 488 kts | 270° |
| 2026-05-06 23:54 | 51.10612 | -175.58968 | 33994 ft | 488 kts | 270° |
| 2026-05-06 23:54 | 51.10553 | -175.69797 | 33993 ft | 488 kts | 269° |
| 2026-05-06 23:55 | 51.10484 | -175.80493 | 33993 ft | 488 kts | 269° |
| 2026-05-06 23:55 | 51.10405 | -175.91295 | 33993 ft | 488 kts | 269° |
| 2026-05-06 23:56 | 51.10316 | -176.02046 | 33993 ft | 488 kts | 269° |
| 2026-05-06 23:56 | 51.10217 | -176.12840 | 33993 ft | 488 kts | 269° |
| 2026-05-06 23:57 | 51.10109 | -176.23564 | 33993 ft | 488 kts | 269° |
| 2026-05-06 23:57 | 51.09990 | -176.34370 | 33993 ft | 488 kts | 269° |
| 2026-05-06 23:58 | 51.09862 | -176.45099 | 33994 ft | 488 kts | 269° |
| 2026-05-06 23:58 | 51.09724 | -176.55907 | 33994 ft | 488 kts | 269° |
| 2026-05-06 23:59 | 51.09576 | -176.66615 | 33994 ft | 488 kts | 268° |
| 2026-05-06 23:59 | 51.09419 | -176.77374 | 33993 ft | 488 kts | 268° |
| 2026-05-07 00:00 | 51.09250 | -176.88184 | 33993 ft | 488 kts | 268° |
| 2026-05-07 00:00 | 51.09073 | -176.98903 | 33993 ft | 488 kts | 268° |
| 2026-05-07 00:01 | 51.08885 | -177.09694 | 33993 ft | 488 kts | 268° |
| 2026-05-07 00:01 | 51.08687 | -177.20485 | 33993 ft | 488 kts | 268° |
| 2026-05-07 00:02 | 51.08481 | -177.31172 | 33993 ft | 488 kts | 268° |
| 2026-05-07 00:02 | 51.08263 | -177.41936 | 33994 ft | 488 kts | 268° |
| 2026-05-07 00:03 | 51.08036 | -177.52713 | 33994 ft | 488 kts | 268° |
| 2026-05-07 00:03 | 51.07798 | -177.63478 | 33994 ft | 488 kts | 268° |
| 2026-05-07 00:04 | 51.07551 | -177.74252 | 33993 ft | 488 kts | 268° |
| 2026-05-07 00:04 | 51.07296 | -177.84953 | 33993 ft | 488 kts | 268° |
| 2026-05-07 00:05 | 51.07029 | -177.95723 | 33993 ft | 488 kts | 268° |
| 2026-05-07 00:05 | 51.06752 | -178.06505 | 33993 ft | 488 kts | 268° |
| 2026-05-07 00:06 | 51.06466 | -178.17212 | 33993 ft | 488 kts | 268° |
| 2026-05-07 00:06 | 51.06169 | -178.27992 | 33993 ft | 488 kts | 268° |
| 2026-05-07 00:07 | 51.05862 | -178.38762 | 33994 ft | 488 kts | 268° |
| 2026-05-07 00:07 | 51.05546 | -178.49507 | 33994 ft | 488 kts | 268° |
| 2026-05-07 00:08 | 51.05222 | -178.60184 | 33994 ft | 488 kts | 268° |
| 2026-05-07 00:08 | 51.04886 | -178.70935 | 33993 ft | 488 kts | 267° |
| 2026-05-07 00:09 | 51.04539 | -178.81708 | 33993 ft | 488 kts | 267° |
| 2026-05-07 00:09 | 51.04184 | -178.92461 | 33993 ft | 488 kts | 267° |
| 2026-05-07 00:10 | 51.03818 | -179.03197 | 33993 ft | 488 kts | 267° |
| 2026-05-07 00:10 | 51.03443 | -179.13907 | 33993 ft | 488 kts | 267° |
| 2026-05-07 00:11 | 51.03057 | -179.24629 | 33993 ft | 488 kts | 267° |
| 2026-05-07 00:11 | 51.02661 | -179.35364 | 33994 ft | 488 kts | 267° |
| 2026-05-07 00:12 | 51.02255 | -179.46112 | 33994 ft | 488 kts | 266° |
| 2026-05-07 00:12 | 51.01839 | -179.56830 | 33993 ft | 488 kts | 266° |
| 2026-05-07 00:13 | 51.01410 | -179.67603 | 33992 ft | 488 kts | 266° |
| 2026-05-07 00:13 | 51.00971 | -179.78326 | 33992 ft | 488 kts | 266° |
| 2026-05-07 00:14 | 51.00519 | -179.89031 | 33993 ft | 488 kts | 266° |
| 2026-05-07 00:14 | 51.00059 | -179.99730 | 33993 ft | 488 kts | 266° |
| 2026-05-07 00:15 | 50.99512 | 179.89552 | 33993 ft | 488 kts | 265° |
| 2026-05-07 00:15 | 50.98905 | 179.78877 | 33993 ft | 488 kts | 265° |
| 2026-05-07 00:16 | 50.98280 | 179.68121 | 33994 ft | 488 kts | 265° |
| 2026-05-07 00:16 | 50.97651 | 179.57446 | 33994 ft | 488 kts | 265° |
| 2026-05-07 00:17 | 50.97014 | 179.46783 | 33994 ft | 488 kts | 265° |
| 2026-05-07 00:17 | 50.96362 | 179.36050 | 33994 ft | 488 kts | 265° |
| 2026-05-07 00:18 | 50.95708 | 179.25418 | 33993 ft | 488 kts | 264° |
| 2026-05-07 00:18 | 50.95038 | 179.14681 | 33993 ft | 488 kts | 264° |
| 2026-05-07 00:19 | 50.94361 | 179.04011 | 33993 ft | 488 kts | 264° |
| 2026-05-07 00:19 | 50.93674 | 178.93344 | 33993 ft | 488 kts | 264° |
| 2026-05-07 00:20 | 50.92979 | 178.82704 | 33993 ft | 488 kts | 264° |
| 2026-05-07 00:20 | 50.92269 | 178.71995 | 33993 ft | 488 kts | 264° |
| 2026-05-07 00:21 | 50.91555 | 178.61368 | 33994 ft | 488 kts | 264° |
| 2026-05-07 00:21 | 50.90826 | 178.50670 | 33994 ft | 488 kts | 264° |
| 2026-05-07 00:22 | 50.90087 | 178.39975 | 33994 ft | 488 kts | 264° |
| 2026-05-07 00:22 | 50.89322 | 178.29347 | 33993 ft | 488 kts | 263° |
| 2026-05-07 00:23 | 50.88544 | 178.18726 | 33993 ft | 488 kts | 263° |
| 2026-05-07 00:23 | 50.87769 | 178.08067 | 33993 ft | 488 kts | 263° |
| 2026-05-07 00:24 | 50.86988 | 177.97395 | 33993 ft | 488 kts | 263° |
| 2026-05-07 00:24 | 50.86204 | 177.86771 | 33993 ft | 488 kts | 263° |
| 2026-05-07 00:25 | 50.85408 | 177.76120 | 33993 ft | 488 kts | 263° |
| 2026-05-07 00:25 | 50.84604 | 177.65488 | 33993 ft | 488 kts | 263° |
| 2026-05-07 00:26 | 50.83790 | 177.54854 | 33992 ft | 488 kts | 263° |
| 2026-05-07 00:26 | 50.82965 | 177.44208 | 33992 ft | 488 kts | 263° |
| 2026-05-07 00:27 | 50.82134 | 177.33617 | 33992 ft | 488 kts | 263° |
| 2026-05-07 00:27 | 50.81289 | 177.22935 | 33993 ft | 488 kts | 263° |
| 2026-05-07 00:28 | 50.80440 | 177.12329 | 33993 ft | 488 kts | 263° |
| 2026-05-07 00:28 | 50.79580 | 177.01738 | 33993 ft | 488 kts | 263° |
| 2026-05-07 00:29 | 50.78709 | 176.91135 | 33993 ft | 488 kts | 263° |
| 2026-05-07 00:30 | 50.76937 | 176.69936 | 33993 ft | 488 kts | 263° |
| 2026-05-07 00:30 | 50.76036 | 176.59334 | 33993 ft | 488 kts | 263° |
| 2026-05-07 00:31 | 50.75125 | 176.48724 | 33993 ft | 488 kts | 263° |
| 2026-05-07 00:31 | 50.74204 | 176.38130 | 33992 ft | 488 kts | 263° |
| 2026-05-07 00:32 | 50.73280 | 176.27580 | 33993 ft | 488 kts | 262° |
| 2026-05-07 00:32 | 50.72342 | 176.16980 | 33993 ft | 488 kts | 262° |
| 2026-05-07 00:33 | 50.71394 | 176.06400 | 33993 ft | 488 kts | 262° |
| 2026-05-07 00:33 | 50.70434 | 175.95799 | 33993 ft | 488 kts | 262° |
| 2026-05-07 00:34 | 50.69468 | 175.85249 | 33993 ft | 488 kts | 262° |
| 2026-05-07 00:34 | 50.68493 | 175.74710 | 33993 ft | 488 kts | 262° |
| 2026-05-07 00:35 | 50.67503 | 175.64113 | 33993 ft | 488 kts | 262° |
| 2026-05-07 00:35 | 50.66509 | 175.53584 | 33993 ft | 488 kts | 262° |
| 2026-05-07 00:36 | 50.65498 | 175.42987 | 33993 ft | 488 kts | 262° |
| 2026-05-07 00:36 | 50.64486 | 175.32466 | 33993 ft | 488 kts | 261° |
| 2026-05-07 00:37 | 50.63463 | 175.21916 | 33993 ft | 488 kts | 261° |
| 2026-05-07 00:37 | 50.62429 | 175.11365 | 33993 ft | 488 kts | 261° |
| 2026-05-07 00:38 | 50.61386 | 175.00830 | 33993 ft | 488 kts | 261° |
| 2026-05-07 00:38 | 50.60335 | 174.90321 | 33993 ft | 488 kts | 261° |
| 2026-05-07 00:39 | 50.59267 | 174.79752 | 33993 ft | 488 kts | 261° |
| 2026-05-07 00:39 | 50.58199 | 174.69267 | 33993 ft | 488 kts | 261° |
| 2026-05-07 00:40 | 50.57112 | 174.58713 | 33993 ft | 488 kts | 261° |
| 2026-05-07 00:40 | 50.56022 | 174.48219 | 33993 ft | 488 kts | 261° |
| 2026-05-07 00:41 | 50.54924 | 174.37744 | 33993 ft | 488 kts | 261° |
| 2026-05-07 00:41 | 50.53818 | 174.27267 | 33993 ft | 488 kts | 260° |
| 2026-05-07 00:42 | 50.52696 | 174.16717 | 33993 ft | 488 kts | 260° |
| 2026-05-07 00:42 | 50.51572 | 174.06262 | 33993 ft | 488 kts | 260° |
| 2026-05-07 00:43 | 50.50435 | 173.95789 | 33993 ft | 488 kts | 260° |
| 2026-05-07 00:43 | 50.49282 | 173.85269 | 33993 ft | 488 kts | 260° |
| 2026-05-07 00:44 | 50.48128 | 173.74823 | 33993 ft | 488 kts | 260° |
| 2026-05-07 00:44 | 50.46957 | 173.64313 | 33993 ft | 488 kts | 260° |
| 2026-05-07 00:45 | 50.45784 | 173.53883 | 33993 ft | 488 kts | 260° |
| 2026-05-07 00:45 | 50.44595 | 173.43396 | 33993 ft | 488 kts | 260° |
| 2026-05-07 00:46 | 50.43403 | 173.32964 | 33993 ft | 488 kts | 259° |
| 2026-05-07 00:46 | 50.42200 | 173.22493 | 33993 ft | 488 kts | 259° |
| 2026-05-07 00:47 | 50.40987 | 173.12038 | 33993 ft | 488 kts | 259° |
| 2026-05-07 00:47 | 50.39769 | 173.01637 | 33993 ft | 488 kts | 259° |
| 2026-05-07 00:48 | 50.38539 | 172.91225 | 33993 ft | 488 kts | 259° |
| 2026-05-07 00:48 | 50.37293 | 172.80759 | 33993 ft | 488 kts | 259° |
| 2026-05-07 00:49 | 50.36047 | 172.70378 | 33993 ft | 488 kts | 259° |
| 2026-05-07 00:49 | 50.34783 | 172.59932 | 33993 ft | 488 kts | 259° |
| 2026-05-07 00:50 | 50.33515 | 172.49539 | 33993 ft | 488 kts | 259° |
| 2026-05-07 00:50 | 50.32239 | 172.39157 | 33993 ft | 488 kts | 259° |
| 2026-05-07 00:51 | 50.30952 | 172.28754 | 33993 ft | 488 kts | 259° |
| 2026-05-07 00:51 | 50.29652 | 172.18311 | 33993 ft | 488 kts | 259° |
| 2026-05-07 00:52 | 50.28352 | 172.07971 | 33993 ft | 488 kts | 259° |
| 2026-05-07 00:52 | 50.27033 | 171.97559 | 33993 ft | 488 kts | 259° |
| 2026-05-07 00:53 | 50.25709 | 171.87190 | 33993 ft | 488 kts | 259° |
| 2026-05-07 00:53 | 50.24377 | 171.76840 | 33993 ft | 488 kts | 259° |
| 2026-05-07 00:54 | 50.23033 | 171.66479 | 33993 ft | 488 kts | 259° |
| 2026-05-07 00:54 | 50.21673 | 171.56067 | 33993 ft | 488 kts | 259° |
| 2026-05-07 00:55 | 50.20319 | 171.45773 | 33993 ft | 488 kts | 259° |
| 2026-05-07 00:55 | 50.18948 | 171.35435 | 33994 ft | 488 kts | 259° |
| 2026-05-07 00:56 | 50.17563 | 171.25038 | 33993 ft | 488 kts | 258° |
| 2026-05-07 00:56 | 50.16181 | 171.14743 | 33993 ft | 488 kts | 258° |
| 2026-05-07 00:57 | 50.14777 | 171.04373 | 33993 ft | 488 kts | 258° |
| 2026-05-07 00:57 | 50.13377 | 170.94112 | 33993 ft | 488 kts | 258° |
| 2026-05-07 00:58 | 50.11949 | 170.83727 | 33993 ft | 488 kts | 258° |
| 2026-05-07 00:58 | 50.10532 | 170.73489 | 33993 ft | 488 kts | 258° |
| 2026-05-07 00:59 | 50.08370 | 170.58022 | 33994 ft | 488 kts | 258° |
| 2026-05-07 01:00 | 50.06910 | 170.47672 | 33994 ft | 488 kts | 258° |
| 2026-05-07 01:00 | 50.05448 | 170.37396 | 33994 ft | 488 kts | 258° |
| 2026-05-07 01:01 | 50.03978 | 170.27141 | 33993 ft | 488 kts | 257° |
| 2026-05-07 01:01 | 50.02497 | 170.16861 | 33993 ft | 488 kts | 257° |
| 2026-05-07 01:02 | 50.00693 | 170.06696 | 33994 ft | 488 kts | 251° |
| 2026-05-07 01:02 | 49.98209 | 169.96905 | 33994 ft | 488 kts | 245° |
| 2026-05-07 01:03 | 49.95067 | 169.87620 | 33994 ft | 488 kts | 239° |
| 2026-05-07 01:03 | 49.91480 | 169.78731 | 33994 ft | 488 kts | 238° |
| 2026-05-07 01:04 | 49.87835 | 169.69836 | 33993 ft | 488 kts | 237° |
| 2026-05-07 01:04 | 49.84193 | 169.61000 | 33993 ft | 488 kts | 238° |
| 2026-05-07 01:05 | 49.80561 | 169.52167 | 33993 ft | 488 kts | 238° |
| 2026-05-07 01:05 | 49.76936 | 169.43353 | 33993 ft | 488 kts | 238° |
| 2026-05-07 01:06 | 49.73301 | 169.34532 | 33992 ft | 488 kts | 237° |
| 2026-05-07 01:06 | 49.69654 | 169.25682 | 33993 ft | 488 kts | 237° |
| 2026-05-07 01:07 | 49.66027 | 169.16911 | 33993 ft | 488 kts | 237° |
| 2026-05-07 01:07 | 49.62368 | 169.08110 | 33993 ft | 488 kts | 237° |
| 2026-05-07 01:08 | 49.58708 | 168.99341 | 33993 ft | 488 kts | 237° |
| 2026-05-07 01:08 | 49.55047 | 168.90598 | 33993 ft | 488 kts | 237° |
| 2026-05-07 01:09 | 49.51352 | 168.81805 | 33993 ft | 488 kts | 237° |
| 2026-05-07 01:09 | 49.47682 | 168.73102 | 33993 ft | 488 kts | 237° |
| 2026-05-07 01:10 | 49.43979 | 168.64348 | 33993 ft | 488 kts | 237° |
| 2026-05-07 01:10 | 49.40296 | 168.55670 | 33993 ft | 488 kts | 237° |
| 2026-05-07 01:11 | 49.36596 | 168.46982 | 33993 ft | 488 kts | 237° |
| 2026-05-07 01:11 | 49.32874 | 168.38266 | 33993 ft | 488 kts | 237° |
| 2026-05-07 01:12 | 49.29169 | 168.29610 | 33993 ft | 488 kts | 236° |
| 2026-05-07 01:12 | 49.25473 | 168.20987 | 33993 ft | 488 kts | 236° |
| 2026-05-07 01:13 | 49.21725 | 168.12283 | 33993 ft | 488 kts | 236° |
| 2026-05-07 01:13 | 49.18000 | 168.03673 | 33993 ft | 488 kts | 236° |
| 2026-05-07 01:14 | 49.14269 | 167.95075 | 33993 ft | 488 kts | 236° |
| 2026-05-07 01:14 | 49.10508 | 167.86441 | 33993 ft | 488 kts | 236° |
| 2026-05-07 01:15 | 49.06763 | 167.77870 | 33993 ft | 488 kts | 236° |
| 2026-05-07 01:15 | 49.03013 | 167.69316 | 33993 ft | 488 kts | 236° |
| 2026-05-07 01:16 | 48.99230 | 167.60715 | 33993 ft | 488 kts | 236° |
| 2026-05-07 01:16 | 48.95469 | 167.52190 | 33994 ft | 488 kts | 236° |
| 2026-05-07 01:17 | 48.91675 | 167.43617 | 33994 ft | 488 kts | 236° |
| 2026-05-07 01:17 | 48.87880 | 167.35097 | 33993 ft | 488 kts | 236° |
| 2026-05-07 01:18 | 48.84074 | 167.26593 | 33993 ft | 488 kts | 236° |
| 2026-05-07 01:18 | 48.80296 | 167.18147 | 33993 ft | 488 kts | 236° |
| 2026-05-07 01:19 | 48.76482 | 167.09644 | 33993 ft | 488 kts | 236° |
| 2026-05-07 01:19 | 48.72668 | 167.01161 | 33993 ft | 488 kts | 236° |
| 2026-05-07 01:20 | 48.68851 | 166.92699 | 33993 ft | 488 kts | 236° |
| 2026-05-07 01:20 | 48.65017 | 166.84225 | 33993 ft | 488 kts | 236° |
| 2026-05-07 01:21 | 48.61200 | 166.75819 | 33993 ft | 488 kts | 236° |
| 2026-05-07 01:21 | 48.57362 | 166.67389 | 33993 ft | 488 kts | 236° |
| 2026-05-07 01:22 | 48.53519 | 166.58974 | 33993 ft | 488 kts | 236° |
| 2026-05-07 01:22 | 48.49670 | 166.50572 | 33993 ft | 488 kts | 236° |
| 2026-05-07 01:23 | 48.45818 | 166.42189 | 33993 ft | 488 kts | 236° |
| 2026-05-07 01:23 | 48.41964 | 166.33830 | 33993 ft | 488 kts | 235° |
| 2026-05-07 01:24 | 48.38093 | 166.25430 | 33993 ft | 488 kts | 235° |
| 2026-05-07 01:24 | 48.34247 | 166.17119 | 33993 ft | 488 kts | 235° |
| 2026-05-07 01:25 | 48.30373 | 166.08784 | 33993 ft | 488 kts | 235° |
| 2026-05-07 01:25 | 48.26489 | 166.00461 | 33993 ft | 488 kts | 235° |
| 2026-05-07 01:26 | 48.22577 | 165.92104 | 33993 ft | 488 kts | 235° |
| 2026-05-07 01:26 | 48.18693 | 165.83832 | 33993 ft | 488 kts | 235° |
| 2026-05-07 01:27 | 48.14778 | 165.75522 | 33993 ft | 488 kts | 235° |
| 2026-05-07 01:27 | 48.10883 | 165.67278 | 33993 ft | 488 kts | 235° |
| 2026-05-07 01:28 | 48.06980 | 165.59041 | 33993 ft | 488 kts | 235° |
| 2026-05-07 01:28 | 48.03043 | 165.50758 | 33994 ft | 488 kts | 235° |
| 2026-05-07 01:29 | 47.99117 | 165.42526 | 33994 ft | 488 kts | 235° |
| 2026-05-07 01:29 | 47.95183 | 165.34299 | 33994 ft | 488 kts | 234° |
| 2026-05-07 01:30 | 47.91254 | 165.26080 | 33993 ft | 488 kts | 234° |
| 2026-05-07 01:30 | 47.87323 | 165.17920 | 33993 ft | 488 kts | 234° |
| 2026-05-07 01:31 | 47.83352 | 165.09743 | 33993 ft | 488 kts | 234° |
| 2026-05-07 01:31 | 47.79375 | 165.01550 | 33993 ft | 488 kts | 234° |
| 2026-05-07 01:32 | 47.75412 | 164.93394 | 33993 ft | 488 kts | 234° |
| 2026-05-07 01:32 | 47.71457 | 164.85275 | 33993 ft | 488 kts | 234° |
| 2026-05-07 01:33 | 47.67490 | 164.77153 | 33993 ft | 488 kts | 234° |
| 2026-05-07 01:33 | 47.63499 | 164.69003 | 33993 ft | 488 kts | 234° |
| 2026-05-07 01:34 | 47.59526 | 164.60918 | 33993 ft | 488 kts | 234° |
| 2026-05-07 01:34 | 47.55532 | 164.52811 | 33993 ft | 488 kts | 234° |
| 2026-05-07 01:35 | 47.51550 | 164.44751 | 33993 ft | 488 kts | 234° |
| 2026-05-07 01:35 | 47.47540 | 164.36662 | 33993 ft | 488 kts | 234° |
| 2026-05-07 01:36 | 47.43555 | 164.28626 | 33993 ft | 488 kts | 233° |
| 2026-05-07 01:36 | 47.39545 | 164.20557 | 33993 ft | 488 kts | 233° |
| 2026-05-07 01:37 | 47.35533 | 164.12523 | 33993 ft | 488 kts | 233° |
| 2026-05-07 01:37 | 47.31504 | 164.04483 | 33993 ft | 488 kts | 233° |
| 2026-05-07 01:38 | 47.27485 | 163.96492 | 33993 ft | 488 kts | 233° |
| 2026-05-07 01:38 | 47.23447 | 163.88486 | 33993 ft | 488 kts | 233° |
| 2026-05-07 01:39 | 47.19398 | 163.80481 | 33993 ft | 488 kts | 233° |
| 2026-05-07 01:39 | 47.15371 | 163.72543 | 33993 ft | 488 kts | 233° |
| 2026-05-07 01:40 | 47.11310 | 163.64563 | 33993 ft | 488 kts | 233° |
| 2026-05-07 01:40 | 47.07268 | 163.56642 | 33993 ft | 488 kts | 233° |
| 2026-05-07 01:41 | 47.03185 | 163.48665 | 33994 ft | 488 kts | 233° |
| 2026-05-07 01:41 | 46.99129 | 163.40761 | 33994 ft | 488 kts | 233° |
| 2026-05-07 01:42 | 46.95059 | 163.32851 | 33993 ft | 488 kts | 233° |
| 2026-05-07 01:42 | 46.90981 | 163.24922 | 33993 ft | 488 kts | 233° |
| 2026-05-07 01:43 | 46.86892 | 163.17041 | 33993 ft | 488 kts | 232° |
| 2026-05-07 01:43 | 46.82805 | 163.09213 | 33993 ft | 488 kts | 232° |
| 2026-05-07 01:44 | 46.78691 | 163.01331 | 33993 ft | 488 kts | 232° |
| 2026-05-07 01:44 | 46.74611 | 162.93520 | 33993 ft | 488 kts | 232° |
| 2026-05-07 01:45 | 46.70507 | 162.85684 | 33993 ft | 488 kts | 232° |
| 2026-05-07 01:45 | 46.66392 | 162.77849 | 33993 ft | 488 kts | 232° |
| 2026-05-07 01:46 | 46.62273 | 162.70029 | 33993 ft | 488 kts | 232° |
| 2026-05-07 01:46 | 46.58151 | 162.62222 | 33993 ft | 488 kts | 232° |
| 2026-05-07 01:47 | 46.54022 | 162.54428 | 33993 ft | 488 kts | 232° |
| 2026-05-07 01:47 | 46.49890 | 162.46655 | 33993 ft | 488 kts | 232° |
| 2026-05-07 01:48 | 46.45747 | 162.38887 | 33993 ft | 488 kts | 232° |
| 2026-05-07 01:48 | 46.41644 | 162.31099 | 33993 ft | 488 kts | 234° |
| 2026-05-07 01:49 | 46.37867 | 162.22963 | 33993 ft | 488 kts | 236° |
| 2026-05-07 01:49 | 46.34146 | 162.14847 | 33993 ft | 488 kts | 236° |
| 2026-05-07 01:50 | 46.30379 | 162.06679 | 33993 ft | 488 kts | 236° |
| 2026-05-07 01:50 | 46.26627 | 161.98583 | 33993 ft | 488 kts | 236° |
| 2026-05-07 01:51 | 46.22841 | 161.90439 | 33993 ft | 488 kts | 236° |
| 2026-05-07 01:51 | 46.19073 | 161.82359 | 33993 ft | 488 kts | 236° |
| 2026-05-07 01:52 | 46.15275 | 161.74239 | 33993 ft | 488 kts | 236° |
| 2026-05-07 01:52 | 46.11498 | 161.66187 | 33993 ft | 488 kts | 236° |
| 2026-05-07 01:53 | 46.07689 | 161.58090 | 33993 ft | 488 kts | 236° |
| 2026-05-07 01:53 | 46.03901 | 161.50061 | 33994 ft | 488 kts | 236° |
| 2026-05-07 01:54 | 46.00082 | 161.41989 | 33994 ft | 488 kts | 236° |
| 2026-05-07 01:54 | 45.96261 | 161.33939 | 33994 ft | 488 kts | 235° |
| 2026-05-07 01:55 | 45.92451 | 161.25903 | 33993 ft | 488 kts | 235° |
| 2026-05-07 01:55 | 45.88655 | 161.17938 | 33993 ft | 488 kts | 235° |
| 2026-05-07 01:56 | 45.84784 | 161.09906 | 33993 ft | 488 kts | 235° |
| 2026-05-07 01:56 | 45.80952 | 161.01958 | 33993 ft | 488 kts | 235° |
| 2026-05-07 01:57 | 45.77099 | 160.93965 | 33993 ft | 488 kts | 235° |
| 2026-05-07 01:57 | 45.73244 | 160.85982 | 33993 ft | 488 kts | 235° |
| 2026-05-07 01:58 | 45.69413 | 160.78070 | 33993 ft | 488 kts | 235° |
| 2026-05-07 01:58 | 45.65552 | 160.70116 | 33993 ft | 488 kts | 235° |
| 2026-05-07 01:59 | 45.61686 | 160.62174 | 33993 ft | 488 kts | 235° |
| 2026-05-07 01:59 | 45.57810 | 160.54231 | 33993 ft | 488 kts | 235° |
| 2026-05-07 02:00 | 45.53951 | 160.46347 | 33993 ft | 488 kts | 235° |
| 2026-05-07 02:00 | 45.50062 | 160.38423 | 33993 ft | 488 kts | 235° |
| 2026-05-07 02:01 | 45.46178 | 160.30521 | 33993 ft | 488 kts | 234° |
| 2026-05-07 02:01 | 45.42287 | 160.22607 | 33993 ft | 488 kts | 234° |
| 2026-05-07 02:02 | 45.38396 | 160.14732 | 33993 ft | 488 kts | 234° |
| 2026-05-07 02:02 | 45.34501 | 160.06880 | 33993 ft | 488 kts | 234° |
| 2026-05-07 02:03 | 45.30608 | 159.99057 | 33993 ft | 488 kts | 234° |
| 2026-05-07 02:03 | 45.26678 | 159.91180 | 33993 ft | 488 kts | 234° |
| 2026-05-07 02:04 | 45.22771 | 159.83372 | 33993 ft | 488 kts | 234° |
| 2026-05-07 02:04 | 45.18837 | 159.75534 | 33993 ft | 488 kts | 234° |
| 2026-05-07 02:05 | 45.14922 | 159.67752 | 33993 ft | 488 kts | 234° |
| 2026-05-07 02:05 | 45.10976 | 159.59933 | 33993 ft | 488 kts | 234° |
| 2026-05-07 02:06 | 45.07049 | 159.52170 | 33993 ft | 488 kts | 234° |
| 2026-05-07 02:06 | 45.03097 | 159.44380 | 33994 ft | 488 kts | 234° |
| 2026-05-07 02:07 | 44.99135 | 159.36591 | 33994 ft | 488 kts | 234° |
| 2026-05-07 02:07 | 44.93221 | 159.24971 | 33993 ft | 488 kts | 234° |
| 2026-05-07 02:08 | 44.89272 | 159.17246 | 33993 ft | 488 kts | 234° |
| 2026-05-07 02:08 | 44.85291 | 159.09546 | 33993 ft | 488 kts | 234° |
| 2026-05-07 02:09 | 44.81294 | 159.01820 | 33993 ft | 488 kts | 234° |
| 2026-05-07 02:09 | 44.77319 | 158.94135 | 33993 ft | 488 kts | 234° |
| 2026-05-07 02:10 | 44.73327 | 158.86429 | 33993 ft | 488 kts | 234° |
| 2026-05-07 02:10 | 44.69340 | 158.78749 | 33993 ft | 488 kts | 234° |
| 2026-05-07 02:11 | 44.65352 | 158.71086 | 33993 ft | 488 kts | 234° |
| 2026-05-07 02:11 | 44.61354 | 158.63425 | 33993 ft | 488 kts | 234° |
| 2026-05-07 02:12 | 44.57353 | 158.55778 | 33993 ft | 488 kts | 234° |
| 2026-05-07 02:12 | 44.53347 | 158.48141 | 33993 ft | 488 kts | 234° |
| 2026-05-07 02:13 | 44.49327 | 158.40500 | 33993 ft | 488 kts | 234° |
| 2026-05-07 02:13 | 44.45314 | 158.32887 | 33993 ft | 488 kts | 233° |
| 2026-05-07 02:14 | 44.41302 | 158.25270 | 33993 ft | 488 kts | 233° |
| 2026-05-07 02:14 | 44.37293 | 158.17688 | 33993 ft | 488 kts | 233° |
| 2026-05-07 02:15 | 44.33255 | 158.10084 | 33993 ft | 488 kts | 233° |
| 2026-05-07 02:15 | 44.29215 | 158.02504 | 33993 ft | 488 kts | 233° |
| 2026-05-07 02:16 | 44.25170 | 157.94933 | 33993 ft | 488 kts | 233° |
| 2026-05-07 02:16 | 44.21120 | 157.87373 | 33993 ft | 488 kts | 233° |
| 2026-05-07 02:17 | 44.17089 | 157.79869 | 33993 ft | 488 kts | 233° |
| 2026-05-07 02:17 | 44.13031 | 157.72334 | 33993 ft | 488 kts | 233° |
| 2026-05-07 02:18 | 44.08967 | 157.64807 | 33993 ft | 488 kts | 233° |
| 2026-05-07 02:18 | 44.04897 | 157.57288 | 33993 ft | 488 kts | 233° |
| 2026-05-07 02:19 | 44.00819 | 157.49776 | 33994 ft | 488 kts | 233° |
| 2026-05-07 02:19 | 43.96735 | 157.42271 | 33994 ft | 488 kts | 233° |
| 2026-05-07 02:20 | 43.92664 | 157.34808 | 33994 ft | 488 kts | 232° |
| 2026-05-07 02:20 | 43.88590 | 157.27342 | 33993 ft | 488 kts | 232° |
| 2026-05-07 02:21 | 43.84481 | 157.19882 | 33993 ft | 488 kts | 232° |
| 2026-05-07 02:21 | 43.80376 | 157.12439 | 33993 ft | 488 kts | 232° |
| 2026-05-07 02:22 | 43.76277 | 157.05013 | 33993 ft | 488 kts | 232° |
| 2026-05-07 02:22 | 43.72167 | 156.97575 | 33993 ft | 488 kts | 232° |
| 2026-05-07 02:23 | 43.68058 | 156.90160 | 33993 ft | 488 kts | 232° |
| 2026-05-07 02:23 | 43.63948 | 156.82759 | 33993 ft | 488 kts | 232° |
| 2026-05-07 02:24 | 43.59836 | 156.75375 | 33993 ft | 488 kts | 232° |
| 2026-05-07 02:24 | 43.55693 | 156.67952 | 33993 ft | 488 kts | 232° |
| 2026-05-07 02:25 | 43.51575 | 156.60594 | 33993 ft | 488 kts | 232° |
| 2026-05-07 02:25 | 43.47420 | 156.53189 | 33993 ft | 488 kts | 232° |
| 2026-05-07 02:26 | 43.43294 | 156.45853 | 33993 ft | 488 kts | 232° |
| 2026-05-07 02:26 | 43.39156 | 156.38515 | 33993 ft | 488 kts | 232° |
| 2026-05-07 02:27 | 43.34996 | 156.31148 | 33993 ft | 488 kts | 232° |
| 2026-05-07 02:27 | 43.30864 | 156.23827 | 33993 ft | 488 kts | 232° |
| 2026-05-07 02:28 | 43.26691 | 156.16470 | 33993 ft | 488 kts | 232° |
| 2026-05-07 02:28 | 43.22529 | 156.09163 | 33993 ft | 488 kts | 232° |
| 2026-05-07 02:29 | 43.18385 | 156.01907 | 33993 ft | 488 kts | 232° |
| 2026-05-07 02:29 | 43.14210 | 155.94618 | 33993 ft | 488 kts | 232° |
| 2026-05-07 02:30 | 43.10024 | 155.87331 | 33993 ft | 488 kts | 232° |
| 2026-05-07 02:30 | 43.05829 | 155.80051 | 33993 ft | 488 kts | 232° |
| 2026-05-07 02:31 | 43.01630 | 155.72788 | 33993 ft | 488 kts | 232° |
| 2026-05-07 02:31 | 42.97455 | 155.65581 | 33993 ft | 488 kts | 231° |
| 2026-05-07 02:32 | 42.93206 | 155.58374 | 33993 ft | 488 kts | 231° |
| 2026-05-07 02:32 | 42.88927 | 155.51184 | 33993 ft | 488 kts | 231° |
| 2026-05-07 02:33 | 42.84652 | 155.44078 | 33993 ft | 488 kts | 231° |
| 2026-05-07 02:33 | 42.80357 | 155.36935 | 33993 ft | 488 kts | 231° |
| 2026-05-07 02:34 | 42.76084 | 155.29808 | 33993 ft | 488 kts | 231° |
| 2026-05-07 02:34 | 42.71823 | 155.22699 | 33993 ft | 488 kts | 230° |
| 2026-05-07 02:35 | 42.67521 | 155.15550 | 33993 ft | 488 kts | 230° |
| 2026-05-07 02:35 | 42.63248 | 155.08475 | 33993 ft | 488 kts | 230° |
| 2026-05-07 02:36 | 42.58961 | 155.01396 | 33993 ft | 488 kts | 230° |
| 2026-05-07 02:36 | 42.54658 | 154.94308 | 33993 ft | 488 kts | 230° |
| 2026-05-07 02:37 | 42.50355 | 154.87238 | 33993 ft | 488 kts | 230° |
| 2026-05-07 02:37 | 42.46040 | 154.80165 | 33993 ft | 488 kts | 230° |
| 2026-05-07 02:38 | 42.41707 | 154.73080 | 33993 ft | 488 kts | 230° |
| 2026-05-07 02:38 | 42.37402 | 154.66057 | 33993 ft | 488 kts | 230° |
| 2026-05-07 02:39 | 42.33088 | 154.59035 | 33993 ft | 488 kts | 230° |
| 2026-05-07 02:39 | 42.28742 | 154.51979 | 33993 ft | 488 kts | 230° |
| 2026-05-07 02:40 | 42.24417 | 154.44974 | 33993 ft | 488 kts | 230° |
| 2026-05-07 02:40 | 42.20085 | 154.37973 | 33993 ft | 488 kts | 230° |
| 2026-05-07 02:41 | 42.15751 | 154.30975 | 33993 ft | 488 kts | 230° |
| 2026-05-07 02:41 | 42.11431 | 154.23999 | 33993 ft | 488 kts | 230° |
| 2026-05-07 02:42 | 42.07067 | 154.16980 | 33993 ft | 488 kts | 230° |
| 2026-05-07 02:42 | 42.02732 | 154.10036 | 33993 ft | 488 kts | 230° |
| 2026-05-07 02:43 | 41.98360 | 154.03050 | 33993 ft | 488 kts | 230° |
| 2026-05-07 02:43 | 41.94008 | 153.96117 | 33993 ft | 488 kts | 230° |
| 2026-05-07 02:44 | 41.89663 | 153.89208 | 33993 ft | 488 kts | 230° |
| 2026-05-07 02:44 | 41.85252 | 153.82259 | 33993 ft | 488 kts | 230° |
| 2026-05-07 02:45 | 41.80880 | 153.75375 | 33993 ft | 488 kts | 230° |
| 2026-05-07 02:45 | 41.76492 | 153.68462 | 33993 ft | 488 kts | 230° |
| 2026-05-07 02:46 | 41.72121 | 153.61581 | 33993 ft | 488 kts | 230° |
| 2026-05-07 02:46 | 41.67713 | 153.54657 | 33993 ft | 488 kts | 230° |
| 2026-05-07 02:47 | 41.63338 | 153.47798 | 33993 ft | 488 kts | 230° |
| 2026-05-07 02:47 | 41.58954 | 153.40941 | 33993 ft | 488 kts | 230° |
| 2026-05-07 02:48 | 41.54544 | 153.34056 | 33993 ft | 488 kts | 229° |
| 2026-05-07 02:48 | 41.50162 | 153.27205 | 33993 ft | 488 kts | 229° |
| 2026-05-07 02:49 | 41.45774 | 153.20366 | 33993 ft | 488 kts | 229° |
| 2026-05-07 02:49 | 41.41341 | 153.13486 | 33993 ft | 488 kts | 229° |
| 2026-05-07 02:50 | 41.36930 | 153.06662 | 33993 ft | 488 kts | 229° |
| 2026-05-07 02:50 | 41.32536 | 152.99881 | 33993 ft | 488 kts | 229° |
| 2026-05-07 02:51 | 41.28088 | 152.93034 | 33993 ft | 488 kts | 229° |
| 2026-05-07 02:51 | 41.23658 | 152.86230 | 33993 ft | 488 kts | 229° |
| 2026-05-07 02:52 | 41.19226 | 152.79437 | 33993 ft | 488 kts | 229° |
| 2026-05-07 02:52 | 41.14797 | 152.72665 | 33993 ft | 488 kts | 229° |
| 2026-05-07 02:53 | 41.10357 | 152.65892 | 33993 ft | 488 kts | 229° |
| 2026-05-07 02:53 | 41.05911 | 152.59123 | 33993 ft | 488 kts | 229° |
| 2026-05-07 02:54 | 41.01467 | 152.52374 | 33993 ft | 488 kts | 229° |
| 2026-05-07 02:54 | 40.97020 | 152.45636 | 33994 ft | 488 kts | 229° |
| 2026-05-07 02:55 | 40.92574 | 152.38913 | 33994 ft | 488 kts | 229° |
| 2026-05-07 02:55 | 40.88125 | 152.32204 | 33994 ft | 488 kts | 228° |
| 2026-05-07 02:56 | 40.83651 | 152.25485 | 33993 ft | 488 kts | 228° |
| 2026-05-07 02:56 | 40.79186 | 152.18788 | 33993 ft | 488 kts | 229° |
| 2026-05-07 02:57 | 40.74719 | 152.12096 | 33993 ft | 488 kts | 229° |
| 2026-05-07 02:57 | 40.70247 | 152.05411 | 33993 ft | 488 kts | 229° |
| 2026-05-07 02:58 | 40.65770 | 151.98730 | 33993 ft | 488 kts | 229° |
| 2026-05-07 02:58 | 40.61264 | 151.92023 | 33993 ft | 488 kts | 229° |
| 2026-05-07 02:59 | 40.56775 | 151.85353 | 33993 ft | 488 kts | 229° |
| 2026-05-07 02:59 | 40.52309 | 151.78734 | 33993 ft | 488 kts | 229° |
| 2026-05-07 03:00 | 40.47816 | 151.72089 | 33993 ft | 488 kts | 229° |
| 2026-05-07 03:00 | 40.43303 | 151.65428 | 33993 ft | 488 kts | 229° |
| 2026-05-07 03:01 | 40.38797 | 151.58792 | 33993 ft | 488 kts | 229° |
| 2026-05-07 03:01 | 40.34311 | 151.52200 | 33993 ft | 488 kts | 229° |
| 2026-05-07 03:02 | 40.29786 | 151.45566 | 33993 ft | 488 kts | 229° |
| 2026-05-07 03:02 | 40.25278 | 151.38971 | 33993 ft | 488 kts | 229° |
| 2026-05-07 03:03 | 40.20771 | 151.32385 | 33993 ft | 488 kts | 228° |
| 2026-05-07 03:03 | 40.16249 | 151.25768 | 33993 ft | 488 kts | 228° |
| 2026-05-07 03:04 | 40.11731 | 151.19185 | 33993 ft | 488 kts | 228° |
| 2026-05-07 03:04 | 40.07209 | 151.12620 | 33993 ft | 488 kts | 228° |
| 2026-05-07 03:05 | 40.02681 | 151.06067 | 33993 ft | 488 kts | 228° |
| 2026-05-07 03:05 | 39.98150 | 150.99522 | 33993 ft | 488 kts | 228° |
| 2026-05-07 03:06 | 39.93612 | 150.92984 | 33993 ft | 488 kts | 228° |
| 2026-05-07 03:06 | 39.89081 | 150.86470 | 33993 ft | 488 kts | 227° |
| 2026-05-07 03:07 | 39.84497 | 150.79936 | 33993 ft | 488 kts | 227° |
| 2026-05-07 03:07 | 39.79951 | 150.73454 | 33993 ft | 488 kts | 228° |
| 2026-05-07 03:08 | 39.75375 | 150.66925 | 33993 ft | 488 kts | 228° |
| 2026-05-07 03:08 | 39.70843 | 150.60466 | 33993 ft | 488 kts | 228° |
| 2026-05-07 03:09 | 39.66277 | 150.53970 | 33993 ft | 488 kts | 228° |
| 2026-05-07 03:09 | 39.61711 | 150.47488 | 33993 ft | 488 kts | 228° |
| 2026-05-07 03:10 | 39.57139 | 150.41011 | 33993 ft | 488 kts | 228° |
| 2026-05-07 03:10 | 39.52579 | 150.34564 | 33993 ft | 488 kts | 227° |
| 2026-05-07 03:11 | 39.48000 | 150.28078 | 33993 ft | 488 kts | 227° |
| 2026-05-07 03:11 | 39.43422 | 150.21614 | 33993 ft | 488 kts | 227° |
| 2026-05-07 03:12 | 39.38853 | 150.15193 | 33993 ft | 488 kts | 227° |
| 2026-05-07 03:12 | 39.34247 | 150.08740 | 33993 ft | 488 kts | 227° |
| 2026-05-07 03:13 | 39.29679 | 150.02359 | 33993 ft | 488 kts | 227° |
| 2026-05-07 03:13 | 39.25054 | 149.95918 | 33993 ft | 488 kts | 227° |
| 2026-05-07 03:14 | 39.20462 | 149.89528 | 33992 ft | 488 kts | 228° |
| 2026-05-07 03:15 | 39.14181 | 149.79248 | 33992 ft | 488 kts | 236° |
| 2026-05-07 03:15 | 39.10701 | 149.71817 | 33993 ft | 488 kts | 240° |
| 2026-05-07 03:16 | 39.07353 | 149.64212 | 33993 ft | 488 kts | 240° |
| 2026-05-07 03:16 | 39.04024 | 149.56680 | 33993 ft | 488 kts | 240° |
| 2026-05-07 03:17 | 39.00657 | 149.49095 | 33994 ft | 488 kts | 240° |
| 2026-05-07 03:17 | 38.97308 | 149.41576 | 33994 ft | 488 kts | 240° |
| 2026-05-07 03:18 | 38.93936 | 149.34026 | 33994 ft | 488 kts | 240° |
| 2026-05-07 03:18 | 38.90571 | 149.26485 | 33993 ft | 488 kts | 240° |
| 2026-05-07 03:19 | 38.87172 | 149.18938 | 33993 ft | 488 kts | 239° |
| 2026-05-07 03:19 | 38.83785 | 149.11459 | 33993 ft | 488 kts | 240° |
| 2026-05-07 03:20 | 38.80379 | 149.03929 | 33993 ft | 488 kts | 240° |
| 2026-05-07 03:20 | 38.76989 | 148.96437 | 33993 ft | 488 kts | 240° |
| 2026-05-07 03:21 | 38.73590 | 148.88940 | 33993 ft | 488 kts | 240° |
| 2026-05-07 03:21 | 38.70188 | 148.81450 | 33993 ft | 488 kts | 240° |
| 2026-05-07 03:22 | 38.66781 | 148.73969 | 33993 ft | 488 kts | 240° |
| 2026-05-07 03:22 | 38.63367 | 148.66487 | 33993 ft | 488 kts | 240° |
| 2026-05-07 03:23 | 38.59951 | 148.59019 | 33993 ft | 488 kts | 240° |
| 2026-05-07 03:23 | 38.56530 | 148.51558 | 33993 ft | 488 kts | 240° |
| 2026-05-07 03:24 | 38.53101 | 148.44096 | 33993 ft | 488 kts | 240° |
| 2026-05-07 03:24 | 38.49667 | 148.36642 | 33993 ft | 488 kts | 240° |
| 2026-05-07 03:25 | 38.46239 | 148.29198 | 33993 ft | 488 kts | 239° |
| 2026-05-07 03:25 | 38.42791 | 148.21719 | 33993 ft | 488 kts | 239° |
| 2026-05-07 03:26 | 38.39362 | 148.14317 | 33993 ft | 488 kts | 239° |
| 2026-05-07 03:26 | 38.35910 | 148.06889 | 33993 ft | 488 kts | 239° |
| 2026-05-07 03:27 | 38.32447 | 147.99457 | 33993 ft | 488 kts | 239° |
| 2026-05-07 03:27 | 38.28988 | 147.92050 | 33993 ft | 488 kts | 239° |
| 2026-05-07 03:28 | 38.25525 | 147.84653 | 33993 ft | 488 kts | 239° |
| 2026-05-07 03:28 | 38.22060 | 147.77271 | 33993 ft | 488 kts | 239° |
| 2026-05-07 03:29 | 38.18585 | 147.69881 | 33993 ft | 488 kts | 239° |
| 2026-05-07 03:29 | 38.15096 | 147.62480 | 33993 ft | 488 kts | 239° |
| 2026-05-07 03:30 | 38.11617 | 147.55118 | 33993 ft | 488 kts | 239° |
| 2026-05-07 03:30 | 38.08136 | 147.47766 | 33993 ft | 488 kts | 239° |
| 2026-05-07 03:31 | 38.04649 | 147.40419 | 33994 ft | 488 kts | 239° |
| 2026-05-07 03:31 | 38.01140 | 147.33040 | 33993 ft | 488 kts | 239° |
| 2026-05-07 03:32 | 37.97660 | 147.25709 | 33993 ft | 488 kts | 239° |
| 2026-05-07 03:32 | 37.94149 | 147.18346 | 33993 ft | 488 kts | 238° |
| 2026-05-07 03:33 | 37.90630 | 147.10992 | 33993 ft | 488 kts | 238° |
| 2026-05-07 03:33 | 37.87106 | 147.03691 | 33993 ft | 488 kts | 238° |
| 2026-05-07 03:34 | 37.83579 | 146.96414 | 33993 ft | 488 kts | 238° |
| 2026-05-07 03:34 | 37.80036 | 146.89088 | 33993 ft | 488 kts | 238° |
| 2026-05-07 03:35 | 37.76509 | 146.81796 | 33993 ft | 488 kts | 238° |
| 2026-05-07 03:35 | 37.72982 | 146.74516 | 33993 ft | 488 kts | 238° |
| 2026-05-07 03:36 | 37.69442 | 146.67226 | 33993 ft | 488 kts | 238° |
| 2026-05-07 03:36 | 37.65881 | 146.59906 | 33993 ft | 488 kts | 238° |
| 2026-05-07 03:37 | 37.62333 | 146.52628 | 33993 ft | 488 kts | 238° |
| 2026-05-07 03:37 | 37.58788 | 146.45375 | 33993 ft | 488 kts | 238° |
| 2026-05-07 03:38 | 37.55231 | 146.38112 | 33993 ft | 488 kts | 238° |
| 2026-05-07 03:38 | 37.51681 | 146.30868 | 33993 ft | 488 kts | 238° |
| 2026-05-07 03:39 | 37.48122 | 146.23607 | 33993 ft | 488 kts | 238° |
| 2026-05-07 03:39 | 37.44550 | 146.16353 | 33993 ft | 488 kts | 238° |
| 2026-05-07 03:40 | 37.40989 | 146.09145 | 33993 ft | 488 kts | 238° |
| 2026-05-07 03:40 | 37.37403 | 146.01907 | 33993 ft | 488 kts | 238° |
| 2026-05-07 03:41 | 37.33832 | 145.94719 | 33993 ft | 487 kts | 238° |
| 2026-05-07 03:41 | 37.30243 | 145.87514 | 33993 ft | 487 kts | 238° |
| 2026-05-07 03:42 | 37.26646 | 145.80318 | 33993 ft | 487 kts | 238° |
| 2026-05-07 03:42 | 37.23053 | 145.73125 | 33992 ft | 487 kts | 239° |
| 2026-05-07 03:43 | 37.19827 | 145.65704 | 33993 ft | 487 kts | 244° |
| 2026-05-07 03:43 | 37.17200 | 145.57860 | 33993 ft | 487 kts | 250° |
| 2026-05-07 03:44 | 37.14864 | 145.49945 | 33993 ft | 487 kts | 250° |
| 2026-05-07 03:44 | 37.12506 | 145.41977 | 33993 ft | 487 kts | 250° |
| 2026-05-07 03:45 | 37.10139 | 145.34027 | 33994 ft | 487 kts | 249° |
| 2026-05-07 03:45 | 37.07779 | 145.26106 | 33993 ft | 487 kts | 249° |
| 2026-05-07 03:46 | 37.05410 | 145.18192 | 33993 ft | 487 kts | 249° |
| 2026-05-07 03:46 | 37.03025 | 145.10259 | 33993 ft | 487 kts | 249° |
| 2026-05-07 03:47 | 37.00648 | 145.02380 | 33993 ft | 487 kts | 249° |
| 2026-05-07 03:47 | 36.98238 | 144.94420 | 33993 ft | 487 kts | 249° |
| 2026-05-07 03:48 | 36.95846 | 144.86539 | 33993 ft | 487 kts | 249° |
| 2026-05-07 03:48 | 36.93436 | 144.78624 | 33993 ft | 487 kts | 249° |
| 2026-05-07 03:49 | 36.91036 | 144.70766 | 33993 ft | 487 kts | 249° |
| 2026-05-07 03:49 | 36.88606 | 144.62875 | 33993 ft | 487 kts | 249° |
| 2026-05-07 03:50 | 36.86158 | 144.55000 | 33993 ft | 487 kts | 249° |
| 2026-05-07 03:50 | 36.83723 | 144.47130 | 33993 ft | 487 kts | 249° |
| 2026-05-07 03:51 | 36.81283 | 144.39237 | 33992 ft | 487 kts | 249° |
| 2026-05-07 03:51 | 36.78851 | 144.31370 | 33993 ft | 487 kts | 249° |
| 2026-05-07 03:52 | 36.76436 | 144.23537 | 33993 ft | 487 kts | 249° |
| 2026-05-07 03:52 | 36.73996 | 144.15683 | 33993 ft | 487 kts | 249° |
| 2026-05-07 03:53 | 36.71541 | 144.07825 | 33993 ft | 487 kts | 249° |
| 2026-05-07 03:53 | 36.69077 | 143.99971 | 33993 ft | 487 kts | 249° |
| 2026-05-07 03:54 | 36.66602 | 143.92111 | 33993 ft | 487 kts | 249° |
| 2026-05-07 03:54 | 36.64131 | 143.84285 | 33993 ft | 487 kts | 249° |
| 2026-05-07 03:55 | 36.61667 | 143.76451 | 33993 ft | 487 kts | 249° |
| 2026-05-07 03:55 | 36.59202 | 143.68636 | 33993 ft | 488 kts | 249° |
| 2026-05-07 03:56 | 36.56710 | 143.60777 | 33993 ft | 488 kts | 249° |
| 2026-05-07 03:56 | 36.54227 | 143.52982 | 33993 ft | 488 kts | 249° |
| 2026-05-07 03:57 | 36.51738 | 143.45187 | 33993 ft | 488 kts | 249° |
| 2026-05-07 03:57 | 36.49229 | 143.37354 | 33993 ft | 488 kts | 249° |
| 2026-05-07 03:58 | 36.46796 | 143.29761 | 33993 ft | 488 kts | 248° |
| 2026-05-07 03:58 | 36.44291 | 143.21956 | 33993 ft | 488 kts | 248° |
| 2026-05-07 03:59 | 36.41766 | 143.14125 | 33993 ft | 488 kts | 248° |
| 2026-05-07 03:59 | 36.39243 | 143.06331 | 33993 ft | 488 kts | 248° |
| 2026-05-07 04:00 | 36.36726 | 142.98579 | 33993 ft | 488 kts | 248° |
| 2026-05-07 04:00 | 36.34183 | 142.90767 | 33993 ft | 488 kts | 248° |
| 2026-05-07 04:01 | 36.31661 | 142.83044 | 33993 ft | 488 kts | 248° |
| 2026-05-07 04:01 | 36.29111 | 142.75256 | 33993 ft | 488 kts | 248° |
| 2026-05-07 04:02 | 36.26557 | 142.67477 | 33993 ft | 488 kts | 248° |
| 2026-05-07 04:02 | 36.24004 | 142.59729 | 33993 ft | 488 kts | 248° |
| 2026-05-07 04:03 | 36.21445 | 142.51993 | 33993 ft | 488 kts | 248° |
| 2026-05-07 04:03 | 36.18879 | 142.44255 | 33993 ft | 488 kts | 248° |
| 2026-05-07 04:04 | 36.16230 | 142.36565 | 33993 ft | 488 kts | 246° |
| 2026-05-07 04:04 | 36.13529 | 142.29118 | 33993 ft | 488 kts | 245° |
| 2026-05-07 04:05 | 36.10755 | 142.21490 | 33993 ft | 488 kts | 245° |
| 2026-05-07 04:05 | 36.07995 | 142.13908 | 33993 ft | 488 kts | 245° |
| 2026-05-07 04:06 | 36.05243 | 142.06282 | 33993 ft | 488 kts | 246° |
| 2026-05-07 04:06 | 36.02491 | 141.98593 | 33993 ft | 488 kts | 246° |
| 2026-05-07 04:07 | 35.99736 | 141.90967 | 33993 ft | 488 kts | 246° |
| 2026-05-07 04:07 | 35.96986 | 141.83383 | 33993 ft | 488 kts | 246° |
| 2026-05-07 04:08 | 35.94458 | 141.75650 | 33992 ft | 488 kts | 251° |
| 2026-05-07 04:08 | 35.92534 | 141.67659 | 33993 ft | 488 kts | 255° |
| 2026-05-07 04:09 | 35.90748 | 141.59554 | 33993 ft | 488 kts | 255° |
| 2026-05-07 04:09 | 35.88958 | 141.51538 | 33993 ft | 488 kts | 255° |
| 2026-05-07 04:10 | 35.87143 | 141.43541 | 33993 ft | 488 kts | 255° |
| 2026-05-07 04:10 | 35.85318 | 141.35461 | 33992 ft | 488 kts | 255° |
| 2026-05-07 04:11 | 35.83586 | 141.27762 | 33993 ft | 488 kts | 254° |
| 2026-05-07 04:11 | 35.81774 | 141.19722 | 33993 ft | 488 kts | 254° |
| 2026-05-07 04:12 | 35.79961 | 141.11725 | 33993 ft | 488 kts | 254° |
| 2026-05-07 04:12 | 35.78139 | 141.03722 | 33993 ft | 488 kts | 254° |
| 2026-05-07 04:13 | 35.76299 | 140.95679 | 33993 ft | 488 kts | 254° |
| 2026-05-07 04:13 | 35.74456 | 140.87662 | 33993 ft | 488 kts | 254° |
| 2026-05-07 04:14 | 35.72555 | 140.79636 | 33992 ft | 488 kts | 252° |
| 2026-05-07 04:14 | 35.70287 | 140.71811 | 33992 ft | 488 kts | 250° |
| 2026-05-07 04:15 | 35.67948 | 140.64020 | 33993 ft | 488 kts | 250° |
| 2026-05-07 04:15 | 35.65718 | 140.56178 | 33994 ft | 488 kts | 252° |
| 2026-05-07 04:16 | 35.63643 | 140.48253 | 33992 ft | 488 kts | 252° |
| 2026-05-07 04:16 | 35.61571 | 140.40367 | 33993 ft | 488 kts | 252° |
| 2026-05-07 04:17 | 35.59483 | 140.32463 | 33993 ft | 488 kts | 252° |
| 2026-05-07 04:17 | 35.57394 | 140.24564 | 33993 ft | 488 kts | 252° |
| 2026-05-07 04:18 | 35.55282 | 140.16626 | 33993 ft | 488 kts | 252° |
| 2026-05-07 04:18 | 35.53174 | 140.08742 | 33993 ft | 488 kts | 252° |
| 2026-05-07 04:19 | 35.51055 | 140.00859 | 33993 ft | 488 kts | 251° |
| 2026-05-07 04:19 | 35.48935 | 139.92989 | 33993 ft | 488 kts | 252° |
| 2026-05-07 04:20 | 35.46666 | 139.85187 | 33993 ft | 488 kts | 249° |
| 2026-05-07 04:20 | 35.44222 | 139.77429 | 33993 ft | 488 kts | 249° |
| 2026-05-07 04:21 | 35.40528 | 139.65801 | 33993 ft | 488 kts | 249° |
| 2026-05-07 04:21 | 35.38071 | 139.58049 | 33992 ft | 488 kts | 250° |
| 2026-05-07 04:22 | 35.36026 | 139.50203 | 33993 ft | 488 kts | 256° |
| 2026-05-07 04:22 | 35.34642 | 139.42087 | 33993 ft | 488 kts | 262° |
| 2026-05-07 04:23 | 35.33950 | 139.33829 | 33993 ft | 488 kts | 266° |
| 2026-05-07 04:23 | 35.33575 | 139.25565 | 33993 ft | 488 kts | 266° |
| 2026-05-07 04:24 | 35.33196 | 139.17252 | 33993 ft | 488 kts | 266° |
| 2026-05-07 04:24 | 35.32800 | 139.08975 | 33993 ft | 488 kts | 266° |
| 2026-05-07 04:25 | 35.32392 | 139.00719 | 33993 ft | 488 kts | 266° |
| 2026-05-07 04:25 | 35.31982 | 138.92452 | 33993 ft | 488 kts | 266° |
| 2026-05-07 04:26 | 35.31585 | 138.84215 | 33993 ft | 488 kts | 266° |
| 2026-05-07 04:26 | 35.31171 | 138.75906 | 33993 ft | 488 kts | 266° |
| 2026-05-07 04:27 | 35.30747 | 138.67658 | 33993 ft | 488 kts | 266° |
| 2026-05-07 04:27 | 35.30313 | 138.59396 | 33993 ft | 488 kts | 266° |
| 2026-05-07 04:28 | 35.29874 | 138.51141 | 33993 ft | 488 kts | 266° |
| 2026-05-07 04:28 | 35.29425 | 138.42844 | 33993 ft | 488 kts | 266° |
| 2026-05-07 04:29 | 35.28972 | 138.34581 | 33993 ft | 488 kts | 266° |
| 2026-05-07 04:29 | 35.28510 | 138.26314 | 33993 ft | 488 kts | 266° |
| 2026-05-07 04:30 | 35.28043 | 138.18079 | 33993 ft | 488 kts | 266° |
| 2026-05-07 04:30 | 35.27580 | 138.09830 | 33993 ft | 488 kts | 266° |
| 2026-05-07 04:31 | 35.27125 | 138.01701 | 33993 ft | 488 kts | 266° |
| 2026-05-07 04:31 | 35.26644 | 137.93416 | 33993 ft | 488 kts | 266° |
| 2026-05-07 04:32 | 35.26151 | 137.85144 | 33993 ft | 488 kts | 266° |
| 2026-05-07 04:32 | 35.25640 | 137.76926 | 33993 ft | 488 kts | 265° |
| 2026-05-07 04:33 | 35.25006 | 137.68633 | 33992 ft | 488 kts | 264° |
| 2026-05-07 04:33 | 35.23970 | 137.60477 | 33993 ft | 488 kts | 258° |
| 2026-05-07 04:34 | 35.22233 | 137.52478 | 33993 ft | 488 kts | 252° |
| 2026-05-07 04:34 | 35.20019 | 137.44684 | 33994 ft | 488 kts | 251° |
| 2026-05-07 04:35 | 35.17755 | 137.36862 | 33993 ft | 488 kts | 251° |
| 2026-05-07 04:35 | 35.15520 | 137.29103 | 33993 ft | 488 kts | 250° |
| 2026-05-07 04:36 | 35.13270 | 137.21281 | 33993 ft | 488 kts | 250° |
| 2026-05-07 04:36 | 35.11027 | 137.13516 | 33993 ft | 488 kts | 250° |
| 2026-05-07 04:37 | 35.08755 | 137.05684 | 33993 ft | 488 kts | 250° |
| 2026-05-07 04:37 | 35.06483 | 136.97882 | 33993 ft | 488 kts | 250° |
| 2026-05-07 04:38 | 35.04224 | 136.90160 | 33993 ft | 488 kts | 250° |
| 2026-05-07 04:38 | 35.01929 | 136.82326 | 33993 ft | 488 kts | 250° |
| 2026-05-07 04:39 | 34.99892 | 136.74501 | 33993 ft | 488 kts | 253° |
| 2026-05-07 04:39 | 34.97947 | 136.66562 | 33993 ft | 488 kts | 253° |
| 2026-05-07 04:40 | 34.96002 | 136.58687 | 33993 ft | 488 kts | 253° |
| 2026-05-07 04:40 | 34.94038 | 136.50794 | 33994 ft | 488 kts | 253° |
| 2026-05-07 04:41 | 34.92060 | 136.42877 | 33994 ft | 488 kts | 253° |
| 2026-05-07 04:41 | 34.90085 | 136.35004 | 33994 ft | 488 kts | 253° |
| 2026-05-07 04:42 | 34.88076 | 136.27094 | 33993 ft | 488 kts | 252° |
| 2026-05-07 04:42 | 34.86077 | 136.19240 | 33993 ft | 488 kts | 252° |
| 2026-05-07 04:43 | 34.84074 | 136.11354 | 33993 ft | 488 kts | 253° |
| 2026-05-07 04:43 | 34.82073 | 136.03477 | 33993 ft | 488 kts | 253° |
| 2026-05-07 04:44 | 34.80074 | 135.95630 | 33993 ft | 488 kts | 253° |
| 2026-05-07 04:44 | 34.78059 | 135.87743 | 33993 ft | 488 kts | 253° |
| 2026-05-07 04:45 | 34.76049 | 135.79903 | 33993 ft | 488 kts | 253° |
| 2026-05-07 04:45 | 34.74024 | 135.72028 | 33993 ft | 488 kts | 253° |
| 2026-05-07 04:46 | 34.72006 | 135.64203 | 33993 ft | 488 kts | 253° |
| 2026-05-07 04:46 | 34.69956 | 135.56290 | 33993 ft | 488 kts | 252° |
| 2026-05-07 04:47 | 34.67922 | 135.48468 | 33993 ft | 488 kts | 252° |
| 2026-05-07 04:47 | 34.65926 | 135.40620 | 33993 ft | 488 kts | 255° |
| 2026-05-07 04:48 | 34.64368 | 135.32558 | 33993 ft | 488 kts | 257° |
| 2026-05-07 04:48 | 34.62956 | 135.24574 | 33993 ft | 488 kts | 258° |
| 2026-05-07 04:49 | 34.61524 | 135.16545 | 33993 ft | 488 kts | 257° |
| 2026-05-07 04:49 | 34.60074 | 135.08499 | 33993 ft | 488 kts | 257° |
| 2026-05-07 04:50 | 34.58618 | 135.00470 | 33993 ft | 488 kts | 257° |
| 2026-05-07 04:50 | 34.57155 | 134.92441 | 33993 ft | 488 kts | 257° |
| 2026-05-07 04:51 | 34.55692 | 134.84444 | 33993 ft | 488 kts | 257° |
| 2026-05-07 04:51 | 34.54221 | 134.76443 | 33993 ft | 488 kts | 257° |
| 2026-05-07 04:52 | 34.52735 | 134.68391 | 33993 ft | 488 kts | 257° |
| 2026-05-07 04:52 | 34.51248 | 134.60381 | 33993 ft | 488 kts | 257° |
| 2026-05-07 04:53 | 34.49760 | 134.52405 | 33993 ft | 488 kts | 257° |
| 2026-05-07 04:53 | 34.48268 | 134.44392 | 33993 ft | 488 kts | 257° |
| 2026-05-07 04:54 | 34.46784 | 134.36420 | 33993 ft | 488 kts | 257° |
| 2026-05-07 04:54 | 34.45279 | 134.28404 | 33993 ft | 488 kts | 257° |
| 2026-05-07 04:55 | 34.43772 | 134.20430 | 33993 ft | 488 kts | 257° |
| 2026-05-07 04:55 | 34.42260 | 134.12384 | 33993 ft | 488 kts | 257° |
| 2026-05-07 04:56 | 34.40757 | 134.04405 | 33993 ft | 488 kts | 257° |
| 2026-05-07 04:56 | 34.39243 | 133.96451 | 33993 ft | 488 kts | 257° |
| 2026-05-07 04:57 | 34.37709 | 133.88444 | 33993 ft | 488 kts | 257° |
| 2026-05-07 04:57 | 34.36172 | 133.80460 | 33993 ft | 488 kts | 257° |
| 2026-05-07 04:58 | 34.34623 | 133.72464 | 33993 ft | 488 kts | 257° |
| 2026-05-07 04:58 | 34.33073 | 133.64491 | 33993 ft | 488 kts | 257° |
| 2026-05-07 04:59 | 34.31340 | 133.56604 | 33993 ft | 488 kts | 252° |
| 2026-05-07 04:59 | 34.29168 | 133.48856 | 33993 ft | 488 kts | 251° |
| 2026-05-07 05:00 | 34.26942 | 133.41110 | 33993 ft | 488 kts | 251° |
| 2026-05-07 05:00 | 34.24724 | 133.33391 | 33993 ft | 488 kts | 250° |
| 2026-05-07 05:01 | 34.22509 | 133.25673 | 33993 ft | 488 kts | 250° |
| 2026-05-07 05:01 | 34.20286 | 133.17963 | 33993 ft | 488 kts | 250° |
| 2026-05-07 05:02 | 34.18064 | 133.10222 | 33993 ft | 488 kts | 251° |
| 2026-05-07 05:02 | 34.15846 | 133.02495 | 33993 ft | 488 kts | 251° |
| 2026-05-07 05:03 | 34.13617 | 132.94788 | 33993 ft | 488 kts | 251° |
| 2026-05-07 05:03 | 34.11375 | 132.87074 | 33993 ft | 488 kts | 251° |
| 2026-05-07 05:04 | 34.09124 | 132.79358 | 33993 ft | 488 kts | 251° |
| 2026-05-07 05:04 | 34.06867 | 132.71643 | 33993 ft | 488 kts | 250° |
| 2026-05-07 05:05 | 34.04619 | 132.63980 | 33993 ft | 488 kts | 250° |
| 2026-05-07 05:05 | 34.02352 | 132.56277 | 33993 ft | 488 kts | 250° |
| 2026-05-07 05:06 | 34.00091 | 132.48616 | 33994 ft | 488 kts | 250° |
| 2026-05-07 05:06 | 33.97808 | 132.40909 | 33994 ft | 488 kts | 250° |
| 2026-05-07 05:07 | 33.95521 | 132.33217 | 33993 ft | 488 kts | 250° |
| 2026-05-07 05:07 | 33.93245 | 132.25560 | 33993 ft | 488 kts | 250° |
| 2026-05-07 05:08 | 33.91129 | 132.17818 | 33991 ft | 488 kts | 254° |
| 2026-05-07 05:08 | 33.89398 | 132.09944 | 33992 ft | 488 kts | 255° |
| 2026-05-07 05:09 | 33.87638 | 132.02022 | 33993 ft | 488 kts | 255° |
| 2026-05-07 05:09 | 33.85889 | 131.94156 | 33993 ft | 488 kts | 255° |
| 2026-05-07 05:10 | 33.84150 | 131.86340 | 33993 ft | 488 kts | 255° |
| 2026-05-07 05:10 | 33.82390 | 131.78447 | 33993 ft | 488 kts | 255° |
| 2026-05-07 05:11 | 33.80640 | 131.70616 | 33993 ft | 488 kts | 255° |
| 2026-05-07 05:11 | 33.78867 | 131.62712 | 33992 ft | 488 kts | 255° |
| 2026-05-07 05:12 | 33.77100 | 131.54857 | 33993 ft | 488 kts | 255° |
| 2026-05-07 05:12 | 33.75332 | 131.47023 | 33992 ft | 488 kts | 255° |
| 2026-05-07 05:13 | 33.73560 | 131.39198 | 33993 ft | 488 kts | 255° |
| 2026-05-07 05:13 | 33.71775 | 131.31334 | 33993 ft | 488 kts | 255° |
| 2026-05-07 05:14 | 33.69991 | 131.23473 | 33993 ft | 488 kts | 255° |
| 2026-05-07 05:14 | 33.68207 | 131.15659 | 33993 ft | 488 kts | 255° |
| 2026-05-07 05:15 | 33.66413 | 131.07832 | 33993 ft | 488 kts | 255° |
| 2026-05-07 05:15 | 33.64607 | 130.99986 | 33993 ft | 488 kts | 255° |
| 2026-05-07 05:16 | 33.62796 | 130.92143 | 33993 ft | 488 kts | 255° |
| 2026-05-07 05:16 | 33.60984 | 130.84322 | 33993 ft | 488 kts | 255° |
| 2026-05-07 05:17 | 33.59167 | 130.76509 | 33993 ft | 488 kts | 254° |
| 2026-05-07 05:17 | 33.57341 | 130.68687 | 33993 ft | 488 kts | 254° |
| 2026-05-07 05:18 | 33.55508 | 130.60870 | 33993 ft | 488 kts | 254° |
| 2026-05-07 05:18 | 33.53665 | 130.53035 | 33992 ft | 488 kts | 254° |
| 2026-05-07 05:19 | 33.51707 | 130.45282 | 33992 ft | 488 kts | 251° |
| 2026-05-07 05:19 | 33.49136 | 130.37753 | 33992 ft | 488 kts | 245° |
| 2026-05-07 05:20 | 33.46269 | 130.30377 | 33993 ft | 488 kts | 245° |
| 2026-05-07 05:20 | 33.43413 | 130.23058 | 33993 ft | 488 kts | 245° |
| 2026-05-07 05:21 | 33.39113 | 130.12056 | 33992 ft | 488 kts | 245° |
| 2026-05-07 05:22 | 33.36238 | 130.04719 | 33993 ft | 488 kts | 245° |
| 2026-05-07 05:22 | 33.33358 | 129.97389 | 33993 ft | 488 kts | 245° |
| 2026-05-07 05:23 | 33.30479 | 129.90080 | 33993 ft | 488 kts | 245° |
| 2026-05-07 05:23 | 33.27574 | 129.82722 | 33993 ft | 488 kts | 245° |
| 2026-05-07 05:24 | 33.24689 | 129.75442 | 33993 ft | 488 kts | 245° |
| 2026-05-07 05:24 | 33.21785 | 129.68124 | 33993 ft | 488 kts | 245° |
| 2026-05-07 05:25 | 33.19098 | 129.60684 | 33993 ft | 488 kts | 248° |
| 2026-05-07 05:25 | 33.16569 | 129.53220 | 33993 ft | 488 kts | 248° |
| 2026-05-07 05:26 | 33.14026 | 129.45752 | 33993 ft | 488 kts | 248° |
| 2026-05-07 05:26 | 33.11456 | 129.38251 | 33993 ft | 488 kts | 248° |
| 2026-05-07 05:27 | 33.08902 | 129.30809 | 33993 ft | 488 kts | 248° |
| 2026-05-07 05:27 | 33.06333 | 129.23326 | 33993 ft | 488 kts | 248° |
| 2026-05-07 05:28 | 33.03761 | 129.15871 | 33993 ft | 488 kts | 248° |
| 2026-05-07 05:28 | 33.01170 | 129.08388 | 33993 ft | 488 kts | 247° |
| 2026-05-07 05:29 | 32.98590 | 129.00960 | 33993 ft | 488 kts | 247° |
| 2026-05-07 05:29 | 32.95985 | 128.93481 | 33993 ft | 488 kts | 247° |
| 2026-05-07 05:30 | 32.93388 | 128.86050 | 33993 ft | 488 kts | 247° |
| 2026-05-07 05:30 | 32.90770 | 128.78592 | 33993 ft | 488 kts | 247° |
| 2026-05-07 05:31 | 32.88158 | 128.71185 | 33993 ft | 488 kts | 247° |
| 2026-05-07 05:31 | 32.85553 | 128.63782 | 33993 ft | 488 kts | 248° |
| 2026-05-07 05:32 | 32.82933 | 128.56329 | 33993 ft | 488 kts | 248° |
| 2026-05-07 05:32 | 32.80316 | 128.48906 | 33993 ft | 488 kts | 248° |
| 2026-05-07 05:33 | 32.77704 | 128.41521 | 33993 ft | 488 kts | 248° |
| 2026-05-07 05:33 | 32.75073 | 128.34103 | 33992 ft | 488 kts | 247° |
| 2026-05-07 05:34 | 32.72451 | 128.26698 | 33993 ft | 488 kts | 247° |
| 2026-05-07 05:34 | 32.69830 | 128.19284 | 33993 ft | 488 kts | 247° |
| 2026-05-07 05:35 | 32.67194 | 128.11856 | 33993 ft | 488 kts | 247° |
| 2026-05-07 05:35 | 32.64559 | 128.04469 | 33993 ft | 488 kts | 247° |
| 2026-05-07 05:36 | 32.61909 | 127.97064 | 33993 ft | 488 kts | 247° |
| 2026-05-07 05:36 | 32.59252 | 127.89660 | 33993 ft | 488 kts | 247° |
| 2026-05-07 05:37 | 32.56594 | 127.82270 | 33993 ft | 488 kts | 247° |
| 2026-05-07 05:37 | 32.53933 | 127.74889 | 33993 ft | 488 kts | 247° |
| 2026-05-07 05:38 | 32.51285 | 127.67561 | 33993 ft | 488 kts | 247° |
| 2026-05-07 05:38 | 32.48613 | 127.60185 | 33993 ft | 488 kts | 247° |
| 2026-05-07 05:39 | 32.45935 | 127.52808 | 33993 ft | 488 kts | 247° |
| 2026-05-07 05:39 | 32.43261 | 127.45456 | 33993 ft | 487 kts | 247° |
| 2026-05-07 05:40 | 32.40582 | 127.38113 | 33993 ft | 487 kts | 247° |
| 2026-05-07 05:40 | 32.37903 | 127.30773 | 33993 ft | 487 kts | 246° |
| 2026-05-07 05:41 | 32.35220 | 127.23431 | 33993 ft | 487 kts | 246° |
| 2026-05-07 05:41 | 32.32515 | 127.16079 | 33993 ft | 487 kts | 246° |
| 2026-05-07 05:42 | 32.29827 | 127.08764 | 33992 ft | 487 kts | 247° |
| 2026-05-07 05:42 | 32.27533 | 127.01279 | 33992 ft | 487 kts | 253° |
| 2026-05-07 05:43 | 32.25770 | 126.93555 | 33993 ft | 487 kts | 255° |
| 2026-05-07 05:43 | 32.24081 | 126.85850 | 33992 ft | 487 kts | 255° |
| 2026-05-07 05:44 | 32.22369 | 126.78110 | 33993 ft | 487 kts | 255° |
| 2026-05-07 05:44 | 32.20652 | 126.70407 | 33993 ft | 487 kts | 255° |
| 2026-05-07 05:45 | 32.18939 | 126.62649 | 33993 ft | 487 kts | 256° |
| 2026-05-07 05:45 | 32.17291 | 126.54934 | 33993 ft | 487 kts | 256° |
| 2026-05-07 05:46 | 32.15624 | 126.47181 | 33993 ft | 487 kts | 256° |
| 2026-05-07 05:46 | 32.13949 | 126.39463 | 33993 ft | 487 kts | 256° |
| 2026-05-07 05:47 | 32.12262 | 126.31731 | 33993 ft | 487 kts | 255° |
| 2026-05-07 05:47 | 32.10583 | 126.24052 | 33993 ft | 487 kts | 255° |
| 2026-05-07 05:48 | 32.08882 | 126.16328 | 33993 ft | 487 kts | 255° |
| 2026-05-07 05:48 | 32.07173 | 126.08607 | 33993 ft | 487 kts | 255° |
| 2026-05-07 05:49 | 32.05496 | 126.00877 | 33993 ft | 487 kts | 256° |
| 2026-05-07 05:49 | 32.03856 | 125.93169 | 33993 ft | 487 kts | 256° |
| 2026-05-07 05:50 | 32.02180 | 125.85407 | 33993 ft | 487 kts | 256° |
| 2026-05-07 05:50 | 32.00516 | 125.77737 | 33993 ft | 487 kts | 256° |
| 2026-05-07 05:51 | 31.98826 | 125.69989 | 33993 ft | 487 kts | 256° |
| 2026-05-07 05:51 | 31.97130 | 125.62317 | 33993 ft | 487 kts | 255° |
| 2026-05-07 05:52 | 31.95405 | 125.54571 | 33994 ft | 487 kts | 255° |
| 2026-05-07 05:52 | 31.93690 | 125.46908 | 33994 ft | 487 kts | 255° |
| 2026-05-07 05:53 | 31.91958 | 125.39192 | 33994 ft | 487 kts | 255° |
| 2026-05-07 05:53 | 31.90237 | 125.31549 | 33993 ft | 487 kts | 255° |
| 2026-05-07 05:54 | 31.88474 | 125.23818 | 33993 ft | 487 kts | 255° |
| 2026-05-07 05:54 | 31.86714 | 125.16142 | 33993 ft | 487 kts | 255° |
| 2026-05-07 05:55 | 31.84965 | 125.08485 | 33993 ft | 487 kts | 255° |
| 2026-05-07 05:55 | 31.83210 | 125.00792 | 33993 ft | 487 kts | 255° |
| 2026-05-07 05:56 | 31.81409 | 124.92554 | 33993 ft | 487 kts | 256° |
| 2026-05-07 05:56 | 31.78102 | 124.77187 | 33994 ft | 487 kts | 256° |
| 2026-05-07 05:57 | 31.74745 | 124.61798 | 33994 ft | 487 kts | 256° |
| 2026-05-07 05:57 | 31.71363 | 124.46415 | 33994 ft | 487 kts | 256° |
| 2026-05-07 05:58 | 31.68039 | 124.31383 | 33994 ft | 487 kts | 255° |
| 2026-05-07 05:58 | 31.64623 | 124.15992 | 33994 ft | 487 kts | 255° |
| 2026-05-07 05:59 | 31.59969 | 123.95197 | 33994 ft | 487 kts | 256° |
| 2026-05-07 05:59 | 31.58304 | 123.87493 | 33675 ft | 486 kts | 256° |
| 2026-05-07 05:59 | 31.57479 | 123.83695 | 33426 ft | 484 kts | 256° |
| 2026-05-07 06:00 | 31.56644 | 123.79874 | 33153 ft | 482 kts | 256° |
| 2026-05-07 06:00 | 31.55806 | 123.76057 | 32630 ft | 481 kts | 256° |
| 2026-05-07 06:00 | 31.54975 | 123.72284 | 31875 ft | 482 kts | 255° |
| 2026-05-07 06:00 | 31.54136 | 123.68494 | 30999 ft | 486 kts | 255° |
| 2026-05-07 06:01 | 31.53281 | 123.64648 | 30035 ft | 490 kts | 255° |
| 2026-05-07 06:01 | 31.52430 | 123.60832 | 29294 ft | 488 kts | 255° |
| 2026-05-07 06:01 | 31.51582 | 123.57031 | 28563 ft | 487 kts | 255° |
| 2026-05-07 06:01 | 31.50730 | 123.53204 | 27824 ft | 484 kts | 255° |
| 2026-05-07 06:02 | 31.49912 | 123.49401 | 27124 ft | 480 kts | 257° |
| 2026-05-07 06:02 | 31.49192 | 123.45609 | 26430 ft | 476 kts | 258° |
| 2026-05-07 06:02 | 31.48489 | 123.41836 | 25740 ft | 473 kts | 258° |
| 2026-05-07 06:02 | 31.47792 | 123.38108 | 25055 ft | 469 kts | 258° |
| 2026-05-07 06:03 | 31.47111 | 123.34485 | 24387 ft | 465 kts | 257° |
| 2026-05-07 06:03 | 31.46480 | 123.31146 | 23771 ft | 461 kts | 257° |
| 2026-05-07 06:03 | 31.45788 | 123.27493 | 23148 ft | 456 kts | 257° |
| 2026-05-07 06:03 | 31.45104 | 123.23897 | 22600 ft | 449 kts | 257° |
| 2026-05-07 06:04 | 31.44436 | 123.20398 | 22093 ft | 442 kts | 257° |
| 2026-05-07 06:04 | 31.43766 | 123.16901 | 21596 ft | 435 kts | 257° |
| 2026-05-07 06:04 | 31.43115 | 123.13507 | 21116 ft | 429 kts | 257° |
| 2026-05-07 06:04 | 31.42459 | 123.10096 | 20634 ft | 423 kts | 257° |
| 2026-05-07 06:05 | 31.41821 | 123.06779 | 20164 ft | 418 kts | 257° |
| 2026-05-07 06:05 | 31.41191 | 123.03513 | 19700 ft | 413 kts | 257° |
| 2026-05-07 06:05 | 31.40555 | 123.00226 | 19232 ft | 408 kts | 257° |
| 2026-05-07 06:05 | 31.39932 | 122.97014 | 18772 ft | 403 kts | 257° |
| 2026-05-07 06:06 | 31.39317 | 122.93848 | 18319 ft | 399 kts | 257° |
| 2026-05-07 06:06 | 31.38706 | 122.90716 | 17868 ft | 395 kts | 257° |
| 2026-05-07 06:06 | 31.38100 | 122.87608 | 17420 ft | 392 kts | 257° |
| 2026-05-07 06:06 | 31.37494 | 122.84495 | 16968 ft | 388 kts | 257° |
| 2026-05-07 06:07 | 31.36891 | 122.81447 | 16521 ft | 385 kts | 255° |
| 2026-05-07 06:07 | 31.35945 | 122.78563 | 16075 ft | 382 kts | 242° |
| 2026-05-07 06:07 | 31.34468 | 122.76014 | 15639 ft | 379 kts | 229° |
| 2026-05-07 06:07 | 31.32571 | 122.73886 | 15216 ft | 375 kts | 220° |
| 2026-05-07 06:08 | 31.30582 | 122.71954 | 14792 ft | 373 kts | 219° |
| 2026-05-07 06:08 | 31.28587 | 122.70057 | 14361 ft | 370 kts | 219° |
| 2026-05-07 06:08 | 31.26611 | 122.68171 | 13931 ft | 368 kts | 219° |
| 2026-05-07 06:08 | 31.24641 | 122.66277 | 13497 ft | 365 kts | 219° |
| 2026-05-07 06:09 | 31.22705 | 122.64409 | 13069 ft | 363 kts | 219° |
| 2026-05-07 06:09 | 31.20773 | 122.62537 | 12638 ft | 361 kts | 220° |
| 2026-05-07 06:09 | 31.18841 | 122.60664 | 12207 ft | 359 kts | 220° |
| 2026-05-07 06:09 | 31.16922 | 122.58803 | 11777 ft | 357 kts | 220° |
| 2026-05-07 06:10 | 31.15040 | 122.56978 | 11353 ft | 355 kts | 220° |
| 2026-05-07 06:10 | 31.13131 | 122.55127 | 10927 ft | 353 kts | 220° |
| 2026-05-07 06:10 | 31.11309 | 122.53360 | 10742 ft | 334 kts | 220° |
| 2026-05-07 06:10 | 31.09598 | 122.51698 | 10615 ft | 301 kts | 220° |
| 2026-05-07 06:11 | 31.08056 | 122.50195 | 10499 ft | 283 kts | 220° |
| 2026-05-07 06:11 | 31.06564 | 122.48740 | 10384 ft | 277 kts | 220° |
| 2026-05-07 06:11 | 31.05098 | 122.47316 | 10279 ft | 277 kts | 220° |
| 2026-05-07 06:11 | 31.03609 | 122.45873 | 10188 ft | 276 kts | 220° |
| 2026-05-07 06:12 | 31.02147 | 122.44457 | 10109 ft | 274 kts | 220° |
| 2026-05-07 06:12 | 31.00714 | 122.43005 | 10039 ft | 271 kts | 225° |
| 2026-05-07 06:12 | 30.99463 | 122.41383 | 9894 ft | 271 kts | 233° |
| 2026-05-07 06:12 | 30.98376 | 122.39600 | 9619 ft | 271 kts | 236° |
| 2026-05-07 06:13 | 30.97321 | 122.37765 | 9355 ft | 270 kts | 237° |
| 2026-05-07 06:13 | 30.96289 | 122.35956 | 9099 ft | 269 kts | 237° |
| 2026-05-07 06:13 | 30.95265 | 122.34166 | 8907 ft | 264 kts | 236° |
| 2026-05-07 06:13 | 30.94262 | 122.32410 | 8886 ft | 253 kts | 236° |
| 2026-05-07 06:14 | 30.93306 | 122.30738 | 8784 ft | 249 kts | 236° |
| 2026-05-07 06:14 | 30.92350 | 122.29070 | 8557 ft | 248 kts | 236° |
| 2026-05-07 06:14 | 30.91383 | 122.27391 | 8328 ft | 247 kts | 236° |
| 2026-05-07 06:14 | 30.90430 | 122.25741 | 8103 ft | 246 kts | 236° |
| 2026-05-07 06:15 | 30.89478 | 122.24103 | 7879 ft | 245 kts | 236° |
| 2026-05-07 06:15 | 30.88511 | 122.22459 | 7654 ft | 244 kts | 236° |
| 2026-05-07 06:15 | 30.87562 | 122.20843 | 7432 ft | 243 kts | 236° |
| 2026-05-07 06:15 | 30.86607 | 122.19212 | 7209 ft | 242 kts | 236° |
| 2026-05-07 06:16 | 30.85660 | 122.17590 | 6988 ft | 241 kts | 236° |
| 2026-05-07 06:16 | 30.84730 | 122.15994 | 6770 ft | 240 kts | 236° |
| 2026-05-07 06:16 | 30.83797 | 122.14388 | 6551 ft | 239 kts | 236° |
| 2026-05-07 06:16 | 30.82860 | 122.12778 | 6332 ft | 239 kts | 236° |
| 2026-05-07 06:17 | 30.81939 | 122.11195 | 6116 ft | 238 kts | 236° |
| 2026-05-07 06:17 | 30.81025 | 122.09579 | 5885 ft | 237 kts | 243° |
| 2026-05-07 06:17 | 30.80686 | 122.07783 | 5786 ft | 229 kts | 276° |
| 2026-05-07 06:17 | 30.81236 | 122.06072 | 5583 ft | 228 kts | 304° |
| 2026-05-07 06:18 | 30.82173 | 122.04591 | 5426 ft | 223 kts | 308° |
| 2026-05-07 06:18 | 30.83100 | 122.03190 | 5270 ft | 218 kts | 308° |
| 2026-05-07 06:18 | 30.84014 | 122.01799 | 5078 ft | 215 kts | 307° |
| 2026-05-07 06:18 | 30.84912 | 122.00413 | 4888 ft | 211 kts | 307° |
| 2026-05-07 06:19 | 30.85782 | 121.99057 | 4699 ft | 208 kts | 307° |
| 2026-05-07 06:19 | 30.86632 | 121.97722 | 4512 ft | 205 kts | 307° |
| 2026-05-07 06:19 | 30.87473 | 121.96395 | 4326 ft | 202 kts | 307° |
| 2026-05-07 06:19 | 30.88301 | 121.95088 | 4142 ft | 199 kts | 307° |
| 2026-05-07 06:20 | 30.89116 | 121.93800 | 3958 ft | 196 kts | 307° |
| 2026-05-07 06:20 | 30.89921 | 121.92527 | 3777 ft | 193 kts | 307° |
| 2026-05-07 06:20 | 30.90698 | 121.91298 | 3615 ft | 187 kts | 307° |
| 2026-05-07 06:20 | 30.91456 | 121.90100 | 3410 ft | 182 kts | 307° |
| 2026-05-07 06:21 | 30.92191 | 121.88938 | 3193 ft | 175 kts | 307° |
| 2026-05-07 06:21 | 30.92927 | 121.87875 | 3018 ft | 160 kts | 317° |
| 2026-05-07 06:21 | 30.93803 | 121.87150 | 2977 ft | 153 kts | 334° |
| 2026-05-07 06:21 | 30.94783 | 121.86694 | 2967 ft | 153 kts | 341° |
| 2026-05-07 06:22 | 30.95789 | 121.86298 | 2961 ft | 153 kts | 342° |
| 2026-05-07 06:22 | 30.97825 | 121.85526 | 2958 ft | 153 kts | 342° |
| 2026-05-07 06:22 | 30.98832 | 121.85144 | 2843 ft | 153 kts | 342° |
| 2026-05-07 06:23 | 30.99840 | 121.84760 | 2648 ft | 152 kts | 342° |
| 2026-05-07 06:23 | 31.00849 | 121.84375 | 2454 ft | 152 kts | 342° |
| 2026-05-07 06:23 | 31.01845 | 121.83996 | 2260 ft | 151 kts | 342° |
| 2026-05-07 06:23 | 31.02841 | 121.83617 | 2064 ft | 151 kts | 342° |
| 2026-05-07 06:24 | 31.03848 | 121.83235 | 1861 ft | 151 kts | 342° |
| 2026-05-07 06:24 | 31.04839 | 121.82860 | 1659 ft | 150 kts | 342° |
| 2026-05-07 06:24 | 31.05827 | 121.82485 | 1456 ft | 150 kts | 342° |
| 2026-05-07 06:24 | 31.06815 | 121.82111 | 1254 ft | 149 kts | 342° |
| 2026-05-07 06:25 | 31.07801 | 121.81739 | 1053 ft | 149 kts | 342° |
| 2026-05-07 06:25 | 31.08790 | 121.81366 | 854 ft | 148 kts | 342° |
| 2026-05-07 06:25 | 31.09772 | 121.80995 | 658 ft | 148 kts | 342° |
| 2026-05-07 06:25 | 31.10755 | 121.80625 | 462 ft | 148 kts | 342° |
| 2026-05-07 06:26 | 31.11719 | 121.80263 | 270 ft | 148 kts | 342° |
| 2026-05-07 06:26 | 31.12707 | 121.79890 | 66 ft | 149 kts | 342° |
| 2026-05-07 06:26 | 31.13611 | 121.79562 | 27 ft | 115 kts | 341° |
| 2026-05-07 06:26 | 31.14107 | 121.79372 | 27 ft | 58 kts | 341° |
| 2026-05-07 06:27 | 31.14444 | 121.79345 | 27 ft | 43 kts | 22° |
| 2026-05-07 06:27 | 31.14578 | 121.79618 | 27 ft | 40 kts | 79° |
| 2026-05-07 06:27 | 31.14606 | 121.79839 | 27 ft | 10 kts | 72° |
| 2026-05-07 06:27 | 31.14608 | 121.79847 | 27 ft | 0 kts | 72° |